Observation data for Sierra Blanca on 02/21/2019      Previous  Date  Next       Current Mesonet Observations  Soil Data  Daily Summary Page  Observations in Plain Language
KSB1 210600Z 16005KT 05/M12 A2983 RMK A01 T00471116  RH  030%=      5-min Rain = 0
KSB1 210601Z 16006KT 05/M12 A2983 RMK A01 T00461116  RH  030%=      5-min Rain = 0
KSB1 210602Z 16006KT 05/M12 A2983 RMK A01 T00451116  RH  030%=      5-min Rain = 0
KSB1 210603Z 16006KT 05/M12 A2983 RMK A01 T00461116  RH  030%=      5-min Rain = 0
KSB1 210604Z 16006KT 05/M12 A2983 RMK A01 T00461115  RH  030%=      5-min Rain = 0
KSB1 210605Z 16005KT 05/M12 A2983 RMK A01 T00451115  RH  030%=      5-min Rain = 0
KSB1 210606Z 16006KT 05/M12 A2983 RMK A01 T00451116  RH  030%=      5-min Rain = 0
KSB1 210607Z 16006KT 05/M12 A2983 RMK A01 T00451115  RH  030%=      5-min Rain = 0
KSB1 210608Z 16005KT 05/M12 A2983 RMK A01 T00451115  RH  030%=      5-min Rain = 0
KSB1 210609Z 16005KT 05/M12 A2983 RMK A01 T00451116  RH  030%=      5-min Rain = 0
KSB1 210610Z 16005KT 05/M12 A2983 RMK A01 T00451116  RH  030%=      5-min Rain = 0
KSB1 210611Z 16005KT 04/M12 A2983 RMK A01 T00441116  RH  030%=      5-min Rain = 0
KSB1 210612Z 16004KT 05/M12 A2983 RMK A01 T00451115  RH  030%=      5-min Rain = 0
KSB1 210613Z 16004KT 05/M12 A2983 RMK A01 T00451115  RH  030%=      5-min Rain = 0
KSB1 210614Z 16004KT 05/M12 A2983 RMK A01 T00461115  RH  030%=      5-min Rain = 0
KSB1 210615Z 16004KT 05/M12 A2983 RMK A01 T00451115  RH  030%=      5-min Rain = 0
KSB1 210616Z 17004KT 05/M11 A2983 RMK A01 T00461114  RH  030%=      5-min Rain = 0
KSB1 210617Z 17004KT 05/M11 A2983 RMK A01 T00461114  RH  030%=      5-min Rain = 0
KSB1 210618Z 16004KT 05/M11 A2983 RMK A01 T00461114  RH  030%=      5-min Rain = 0
KSB1 210619Z 16004KT 05/M11 A2983 RMK A01 T00461114  RH  030%=      5-min Rain = 0
KSB1 210620Z 16004KT 05/M11 A2983 RMK A01 T00471113  RH  030%=      5-min Rain = 0
KSB1 210621Z 16004KT 05/M11 A2983 RMK A01 T00491112  RH  030%=      5-min Rain = 0
KSB1 210622Z 15004KT 05/M11 A2983 RMK A01 T00501112  RH  030%=      5-min Rain = 0
KSB1 210623Z 15005KT 05/M11 A2983 RMK A01 T00501112  RH  030%=      5-min Rain = 0
KSB1 210624Z 15005KT 05/M11 A2983 RMK A01 T00511112  RH  030%=      5-min Rain = 0
KSB1 210625Z 14005KT 05/M11 A2983 RMK A01 T00511113  RH  030%=      5-min Rain = 0
KSB1 210626Z 14005KT 05/M11 A2983 RMK A01 T00511112  RH  030%=      5-min Rain = 0
KSB1 210627Z 14005KT 05/M11 A2983 RMK A01 T00511113  RH  030%=      5-min Rain = 0
KSB1 210628Z 13005KT 05/M11 A2983 RMK A01 T00511113  RH  030%=      5-min Rain = 0
KSB1 210629Z 14005KT 05/M11 A2983 RMK A01 T00521112  RH  030%=      5-min Rain = 0
KSB1 210630Z 14005KT 05/M11 A2983 RMK A01 T00521112  RH  030%=      5-min Rain = 0
KSB1 210631Z 15005KT 05/M11 A2983 RMK A01 T00521112  RH  030%=      5-min Rain = 0
KSB1 210632Z 14005KT 05/M11 A2983 RMK A01 T00521112  RH  030%=      5-min Rain = 0
KSB1 210633Z 15005KT 05/M11 A2983 RMK A01 T00521111  RH  030%=      5-min Rain = 0
KSB1 210634Z 15006KT 05/M11 A2983 RMK A01 T00521110  RH  030%=      5-min Rain = 0
KSB1 210635Z 15006KT 05/M11 A2983 RMK A01 T00521110  RH  030%=      5-min Rain = 0
KSB1 210636Z 15006KT 05/M11 A2983 RMK A01 T00521110  RH  030%=      5-min Rain = 0
KSB1 210637Z 15006KT 05/M11 A2983 RMK A01 T00521110  RH  030%=      5-min Rain = 0
KSB1 210638Z 15006KT 05/M11 A2983 RMK A01 T00521109  RH  030%=      5-min Rain = 0
KSB1 210639Z 15006KT 05/M11 A2983 RMK A01 T00521108  RH  030%=      5-min Rain = 0
KSB1 210640Z 16006KT 05/M11 A2983 RMK A01 T00531108  RH  030%=      5-min Rain = 0
KSB1 210641Z 15006KT 05/M11 A2983 RMK A01 T00531108  RH  030%=      5-min Rain = 0
KSB1 210642Z 15006KT 05/M11 A2983 RMK A01 T00531108  RH  030%=      5-min Rain = 0
KSB1 210643Z 15006KT 05/M11 A2983 RMK A01 T00541107  RH  030%=      5-min Rain = 0
KSB1 210644Z 15006KT 05/M11 A2983 RMK A01 T00541107  RH  030%=      5-min Rain = 0
KSB1 210645Z 15006KT 05/M11 A2983 RMK A01 T00541108  RH  030%=      5-min Rain = 0
KSB1 210646Z 16006KT 05/M11 A2983 RMK A01 T00531108  RH  030%=      5-min Rain = 0
KSB1 210647Z 15006KT 05/M11 A2983 RMK A01 T00531107  RH  030%=      5-min Rain = 0
KSB1 210648Z 15006KT 05/M11 A2983 RMK A01 T00531107  RH  031%=      5-min Rain = 0
KSB1 210649Z 15006KT 05/M11 A2983 RMK A01 T00531106  RH  031%=      5-min Rain = 0
KSB1 210650Z 15006KT 05/M11 A2983 RMK A01 T00531105  RH  031%=      5-min Rain = 0
KSB1 210651Z 15006KT 05/M11 A2983 RMK A01 T00541105  RH  031%=      5-min Rain = 0
KSB1 210652Z 15006KT 06/M10 A2983 RMK A01 T00551104  RH  031%=      5-min Rain = 0
KSB1 210653Z 15006KT 06/M11 A2983 RMK A01 T00551105  RH  030%=      5-min Rain = 0
KSB1 210654Z 15006KT 06/M11 A2982 RMK A01 T00551106  RH  030%=      5-min Rain = 0
KSB1 210655Z 15006KT 06/M11 A2982 RMK A01 T00551106  RH  030%=      5-min Rain = 0
KSB1 210656Z 16006KT 06/M11 A2982 RMK A01 T00551106  RH  030%=      5-min Rain = 0
KSB1 210657Z 15006KT 06/M11 A2982 RMK A01 T00561105  RH  030%=      5-min Rain = 0
KSB1 210658Z 16007KT 06/M10 A2982 RMK A01 T00561104  RH  030%=      5-min Rain = 0
KSB1 210659Z 16007KT 06/M10 A2982 RMK A01 T00571104  RH  030%=      5-min Rain = 0
KSB1 210700Z 16007KT 06/M10 A2982 RMK A01 T00571104  RH  030%=      5-min Rain = 0
KSB1 210701Z 16007KT 06/M10 A2982 RMK A01 T00581102  RH  031%=      5-min Rain = 0
KSB1 210702Z 17007KT 06/M10 A2982 RMK A01 T00591101  RH  031%=      5-min Rain = 0
KSB1 210703Z 17008KT 06/M10 A2982 RMK A01 T00601100  RH  031%=      5-min Rain = 0
KSB1 210704Z 16007KT 06/M10 A2982 RMK A01 T00611098  RH  031%=      5-min Rain = 0
KSB1 210705Z 16008KT 06/M10 A2982 RMK A01 T00621097  RH  031%=      5-min Rain = 0
KSB1 210706Z 16008KT 06/M10 A2982 RMK A01 T00631097  RH  031%=      5-min Rain = 0
KSB1 210707Z 16008KT 06/M10 A2982 RMK A01 T00631097  RH  031%=      5-min Rain = 0
KSB1 210708Z 15008KT 06/M10 A2982 RMK A01 T00631097  RH  031%=      5-min Rain = 0
KSB1 210709Z 15007KT 06/M10 A2982 RMK A01 T00631097  RH  031%=      5-min Rain = 0
KSB1 210710Z 15007KT 06/M10 A2982 RMK A01 T00631097  RH  031%=      5-min Rain = 0
KSB1 210711Z 15007KT 06/M10 A2982 RMK A01 T00621098  RH  031%=      5-min Rain = 0
KSB1 210712Z 15007KT 06/M10 A2982 RMK A01 T00621098  RH  031%=      5-min Rain = 0
KSB1 210713Z 15007KT 06/M10 A2982 RMK A01 T00621098  RH  031%=      5-min Rain = 0
KSB1 210714Z 15007KT 06/M10 A2981 RMK A01 T00621097  RH  031%=      5-min Rain = 0
KSB1 210715Z 15007KT 06/M10 A2981 RMK A01 T00621097  RH  031%=      5-min Rain = 0
KSB1 210716Z 15007KT 06/M10 A2981 RMK A01 T00621097  RH  031%=      5-min Rain = 0
KSB1 210717Z 15007KT 06/M10 A2981 RMK A01 T00631096  RH  031%=      5-min Rain = 0
KSB1 210718Z 15007KT 06/M10 A2981 RMK A01 T00631096  RH  031%=      5-min Rain = 0
KSB1 210719Z 15007KT 06/M10 A2981 RMK A01 T00641096  RH  031%=      5-min Rain = 0
KSB1 210720Z 15007KT 06/M10 A2981 RMK A01 T00641096  RH  031%=      5-min Rain = 0
KSB1 210721Z 16007KT 06/M10 A2981 RMK A01 T00641096  RH  031%=      5-min Rain = 0
KSB1 210722Z 16007KT 06/M10 A2981 RMK A01 T00631097  RH  031%=      5-min Rain = 0
KSB1 210723Z 15008KT 06/M10 A2982 RMK A01 T00631097  RH  031%=      5-min Rain = 0
KSB1 210724Z 16008KT 06/M10 A2982 RMK A01 T00621099  RH  030%=      5-min Rain = 0
KSB1 210725Z 17010KT 06/M10 A2982 RMK A01 T00611099  RH  031%=      5-min Rain = 0
KSB1 210726Z 16008KT 06/M10 A2982 RMK A01 T00621096  RH  031%=      5-min Rain = 0
KSB1 210727Z 16008KT 06/M10 A2982 RMK A01 T00631097  RH  031%=      5-min Rain = 0
KSB1 210728Z 16011KT 06/M10 A2982 RMK A01 T00621098  RH  031%=      5-min Rain = 0
KSB1 210729Z 17012KT 06/M09 A2981 RMK A01 T00641094  RH  031%=      5-min Rain = 0
KSB1 210730Z 17009KT 07/M09 A2981 RMK A01 T00691090  RH  031%=      5-min Rain = 0
KSB1 210731Z 16009KT 07/M09 A2981 RMK A01 T00711091  RH  031%=      5-min Rain = 0
KSB1 210732Z 16011KT 07/M09 A2981 RMK A01 T00721092  RH  030%=      5-min Rain = 0
KSB1 210733Z 16008KT 07/M09 A2981 RMK A01 T00711093  RH  030%=      5-min Rain = 0
KSB1 210734Z 16012KT 07/M09 A2981 RMK A01 T00711093  RH  030%=      5-min Rain = 0
KSB1 210735Z 16010KT 07/M09 A2981 RMK A01 T00711093  RH  030%=      5-min Rain = 0
KSB1 210736Z 17009KT 07/M09 A2981 RMK A01 T00711093  RH  030%=      5-min Rain = 0
KSB1 210737Z 17008KT 07/M09 A2981 RMK A01 T00711094  RH  030%=      5-min Rain = 0
KSB1 210738Z 17008KT 07/M09 A2981 RMK A01 T00711094  RH  030%=      5-min Rain = 0
KSB1 210739Z 18008KT 07/M09 A2981 RMK A01 T00711094  RH  030%=      5-min Rain = 0
KSB1 210740Z 14006KT 07/M09 A2981 RMK A01 T00711094  RH  030%=      5-min Rain = 0
KSB1 210741Z 15007KT 07/M09 A2981 RMK A01 T00711094  RH  030%=      5-min Rain = 0
KSB1 210742Z 15006KT 07/M10 A2981 RMK A01 T00701095  RH  030%=      5-min Rain = 0
KSB1 210743Z 14007KT 07/M10 A2981 RMK A01 T00681096  RH  030%=      5-min Rain = 0
KSB1 210744Z 16008KT 07/M10 A2981 RMK A01 T00691095  RH  030%=      5-min Rain = 0
KSB1 210745Z 16007KT 07/M09 A2981 RMK A01 T00691094  RH  030%=      5-min Rain = 0
KSB1 210746Z 17005KT 07/M09 A2981 RMK A01 T00691094  RH  030%=      5-min Rain = 0
KSB1 210747Z 16006KT 07/M09 A2981 RMK A01 T00701094  RH  030%=      5-min Rain = 0
KSB1 210748Z 17007KT 07/M10 A2981 RMK A01 T00691095  RH  030%=      5-min Rain = 0
KSB1 210749Z 16006KT 07/M09 A2981 RMK A01 T00701094  RH  030%=      5-min Rain = 0
KSB1 210750Z 16006KT 07/M09 A2981 RMK A01 T00711094  RH  030%=      5-min Rain = 0
KSB1 210751Z 17006KT 07/M09 A2981 RMK A01 T00711093  RH  030%=      5-min Rain = 0
KSB1 210752Z 17005KT 07/M09 A2981 RMK A01 T00711092  RH  030%=      5-min Rain = 0
KSB1 210753Z 18007KT 07/M09 A2981 RMK A01 T00711092  RH  030%=      5-min Rain = 0
KSB1 210754Z 18006KT 07/M09 A2981 RMK A01 T00711092  RH  030%=      5-min Rain = 0
KSB1 210755Z 18005KT 07/M09 A2981 RMK A01 T00701093  RH  030%=      5-min Rain = 0
KSB1 210756Z 16003KT 07/M09 A2981 RMK A01 T00701093  RH  030%=      5-min Rain = 0
KSB1 210757Z 18003KT 07/M09 A2981 RMK A01 T00691094  RH  030%=      5-min Rain = 0
KSB1 210758Z 19004KT 07/M09 A2981 RMK A01 T00691094  RH  030%=      5-min Rain = 0
KSB1 210759Z 19005KT 07/M10 A2981 RMK A01 T00681095  RH  030%=      5-min Rain = 0
KSB1 210800Z 19004KT 07/M10 A2981 RMK A01 T00671095  RH  030%=      5-min Rain = 0
KSB1 210801Z 18003KT 07/M10 A2981 RMK A01 T00661096  RH  030%=      5-min Rain = 0
KSB1 210802Z 18003KT 07/M10 A2981 RMK A01 T00651096  RH  031%=      5-min Rain = 0
KSB1 210803Z 18004KT 07/M10 A2981 RMK A01 T00651096  RH  031%=      5-min Rain = 0
KSB1 210804Z 14005KT 07/M10 A2981 RMK A01 T00651095  RH  031%=      5-min Rain = 0
KSB1 210805Z 10005KT 07/M10 A2981 RMK A01 T00651095  RH  031%=      5-min Rain = 0
KSB1 210806Z 10004KT 07/M09 A2981 RMK A01 T00651094  RH  031%=      5-min Rain = 0
KSB1 210807Z 19002KT 07/M09 A2981 RMK A01 T00671093  RH  031%=      5-min Rain = 0
KSB1 210808Z 17002KT 07/M09 A2981 RMK A01 T00671094  RH  031%=      5-min Rain = 0
KSB1 210809Z 18003KT 07/M09 A2981 RMK A01 T00661094  RH  031%=      5-min Rain = 0
KSB1 210810Z 19004KT 07/M09 A2981 RMK A01 T00661093  RH  031%=      5-min Rain = 0
KSB1 210811Z 19003KT 07/M09 A2981 RMK A01 T00661093  RH  031%=      5-min Rain = 0
KSB1 210812Z 18004KT 07/M09 A2981 RMK A01 T00661094  RH  031%=      5-min Rain = 0
KSB1 210813Z 19005KT 07/M09 A2981 RMK A01 T00651093  RH  031%=      5-min Rain = 0
KSB1 210814Z 19006KT 07/M09 A2981 RMK A01 T00651091  RH  032%=      5-min Rain = 0
KSB1 210815Z 19005KT 07/M09 A2981 RMK A01 T00661090  RH  032%=      5-min Rain = 0
KSB1 210816Z 20005KT 07/M09 A2981 RMK A01 T00661090  RH  032%=      5-min Rain = 0
KSB1 210817Z 20005KT 07/M09 A2981 RMK A01 T00661090  RH  032%=      5-min Rain = 0
KSB1 210818Z 19007KT 07/M09 A2981 RMK A01 T00661090  RH  032%=      5-min Rain = 0
KSB1 210819Z 19006KT 07/M09 A2981 RMK A01 T00671089  RH  032%=      5-min Rain = 0
KSB1 210820Z 19007KT 07/M09 A2981 RMK A01 T00671090  RH  032%=      5-min Rain = 0
KSB1 210821Z 20008KT 07/M09 A2981 RMK A01 T00671090  RH  032%=      5-min Rain = 0
KSB1 210822Z 20007KT 07/M09 A2981 RMK A01 T00681089  RH  032%=      5-min Rain = 0
KSB1 210823Z 19007KT 07/M09 A2981 RMK A01 T00691089  RH  031%=      5-min Rain = 0
KSB1 210824Z 19006KT 07/M09 A2981 RMK A01 T00681089  RH  031%=      5-min Rain = 0
KSB1 210825Z 19007KT 07/M09 A2981 RMK A01 T00681089  RH  032%=      5-min Rain = 0
KSB1 210826Z 17006KT 07/M09 A2981 RMK A01 T00671089  RH  032%=      5-min Rain = 0
KSB1 210827Z 16005KT 07/M09 A2981 RMK A01 T00661092  RH  031%=      5-min Rain = 0
KSB1 210828Z 16004KT 06/M10 A2981 RMK A01 T00631097  RH  031%=      5-min Rain = 0
KSB1 210829Z 17004KT 06/M10 A2981 RMK A01 T00611099  RH  031%=      5-min Rain = 0
KSB1 210830Z 19004KT 06/M10 A2981 RMK A01 T00601098  RH  031%=      5-min Rain = 0
KSB1 210831Z 20006KT 06/M10 A2981 RMK A01 T00591096  RH  032%=      5-min Rain = 0
KSB1 210832Z 20006KT 06/M09 A2981 RMK A01 T00591091  RH  033%=      5-min Rain = 0
KSB1 210833Z 21007KT 06/M09 A2981 RMK A01 T00611089  RH  033%=      5-min Rain = 0
KSB1 210834Z 20008KT 06/M09 A2981 RMK A01 T00621089  RH  033%=      5-min Rain = 0
KSB1 210835Z 20008KT 06/M09 A2981 RMK A01 T00631089  RH  033%=      5-min Rain = 0
KSB1 210836Z 21008KT 06/M09 A2981 RMK A01 T00641089  RH  032%=      5-min Rain = 0
KSB1 210837Z 20009KT 06/M09 A2981 RMK A01 T00641089  RH  032%=      5-min Rain = 0
KSB1 210838Z 20008KT 07/M09 A2981 RMK A01 T00651089  RH  032%=      5-min Rain = 0
KSB1 210839Z 20009KT 07/M09 A2981 RMK A01 T00651090  RH  032%=      5-min Rain = 0
KSB1 210840Z 18010KT 07/M09 A2981 RMK A01 T00651089  RH  032%=      5-min Rain = 0
KSB1 210841Z 19009KT 07/M09 A2981 RMK A01 T00681087  RH  032%=      5-min Rain = 0
KSB1 210842Z 19008KT 07/M09 A2981 RMK A01 T00681088  RH  032%=      5-min Rain = 0
KSB1 210843Z 19009KT 07/M09 A2981 RMK A01 T00681088  RH  032%=      5-min Rain = 0
KSB1 210844Z 19008KT 07/M09 A2981 RMK A01 T00681088  RH  032%=      5-min Rain = 0
KSB1 210845Z 19007KT 07/M09 A2981 RMK A01 T00681088  RH  032%=      5-min Rain = 0
KSB1 210846Z 19008KT 07/M09 A2981 RMK A01 T00671088  RH  032%=      5-min Rain = 0
KSB1 210847Z 20008KT 07/M09 A2981 RMK A01 T00681087  RH  032%=      5-min Rain = 0
KSB1 210848Z 19008KT 07/M09 A2981 RMK A01 T00691087  RH  032%=      5-min Rain = 0
KSB1 210849Z 19008KT 07/M09 A2981 RMK A01 T00701087  RH  032%=      5-min Rain = 0
KSB1 210850Z 20007KT 07/M09 A2981 RMK A01 T00681088  RH  032%=      5-min Rain = 0
KSB1 210851Z 19007KT 07/M09 A2981 RMK A01 T00681088  RH  032%=      5-min Rain = 0
KSB1 210852Z 19007KT 07/M09 A2981 RMK A01 T00671088  RH  032%=      5-min Rain = 0
KSB1 210853Z 19007KT 07/M09 A2981 RMK A01 T00661088  RH  032%=      5-min Rain = 0
KSB1 210854Z 19007KT 07/M09 A2981 RMK A01 T00661088  RH  032%=      5-min Rain = 0
KSB1 210855Z 18009KT 07/M09 A2981 RMK A01 T00661088  RH  032%=      5-min Rain = 0
KSB1 210856Z 18009KT 07/M09 A2981 RMK A01 T00671087  RH  032%=      5-min Rain = 0
KSB1 210857Z 18008KT 07/M09 A2981 RMK A01 T00691086  RH  032%=      5-min Rain = 0
KSB1 210858Z 18009KT 07/M09 A2981 RMK A01 T00691087  RH  032%=      5-min Rain = 0
KSB1 210859Z 19008KT 07/M09 A2981 RMK A01 T00691087  RH  032%=      5-min Rain = 0
KSB1 210900Z 19009KT 07/M09 A298 RMK A01 T00701087  RH  032%=      5-min Rain = 0
KSB1 210901Z 19009KT 07/M09 A298 RMK A01 T00711086  RH  032%=      5-min Rain = 0
KSB1 210902Z 18011KT 07/M09 A298 RMK A01 T00721086  RH  032%=      5-min Rain = 0
KSB1 210903Z 18010KT 07/M09 A298 RMK A01 T00731087  RH  031%=      5-min Rain = 0
KSB1 210904Z 19009KT 07/M09 A298 RMK A01 T00731088  RH  031%=      5-min Rain = 0
KSB1 210905Z 19009KT 07/M09 A298 RMK A01 T00731088  RH  031%=      5-min Rain = 0
KSB1 210906Z 18010KT 07/M09 A298 RMK A01 T00731088  RH  031%=      5-min Rain = 0
KSB1 210907Z 18009KT 07/M09 A298 RMK A01 T00731087  RH  031%=      5-min Rain = 0
KSB1 210908Z 18008KT 07/M09 A298 RMK A01 T00731088  RH  031%=      5-min Rain = 0
KSB1 210909Z 18007KT 07/M09 A298 RMK A01 T00731088  RH  031%=      5-min Rain = 0
KSB1 210910Z 18007KT 07/M09 A298 RMK A01 T00731088  RH  031%=      5-min Rain = 0
KSB1 210911Z 18006KT 07/M09 A298 RMK A01 T00731088  RH  031%=      5-min Rain = 0
KSB1 210912Z 17007KT 07/M09 A298 RMK A01 T00721088  RH  031%=      5-min Rain = 0
KSB1 210913Z 17006KT 07/M09 A298 RMK A01 T00711088  RH  031%=      5-min Rain = 0
KSB1 210914Z 17006KT 07/M09 A298 RMK A01 T00701089  RH  031%=      5-min Rain = 0
KSB1 210915Z 17006KT 07/M09 A298 RMK A01 T00691089  RH  032%=      5-min Rain = 0
KSB1 210916Z 15005KT 07/M09 A298 RMK A01 T00681089  RH  032%=      5-min Rain = 0
KSB1 210917Z 16006KT 07/M09 A298 RMK A01 T00681089  RH  032%=      5-min Rain = 0
KSB1 210918Z 15005KT 07/M09 A298 RMK A01 T00681088  RH  032%=      5-min Rain = 0
KSB1 210919Z 16004KT 07/M09 A298 RMK A01 T00681088  RH  032%=      5-min Rain = 0
KSB1 210920Z 16004KT 07/M09 A298 RMK A01 T00681088  RH  032%=      5-min Rain = 0
KSB1 210921Z 16005KT 07/M09 A298 RMK A01 T00681088  RH  032%=      5-min Rain = 0
KSB1 210922Z 17006KT 07/M09 A298 RMK A01 T00671088  RH  032%=      5-min Rain = 0
KSB1 210923Z 16004KT 07/M09 A298 RMK A01 T00691087  RH  032%=      5-min Rain = 0
KSB1 210924Z 16005KT 07/M09 A298 RMK A01 T00691087  RH  032%=      5-min Rain = 0
KSB1 210925Z 16004KT 07/M09 A298 RMK A01 T00691087  RH  032%=      5-min Rain = 0
KSB1 210926Z 17005KT 07/M09 A298 RMK A01 T00691088  RH  032%=      5-min Rain = 0
KSB1 210927Z 16005KT 07/M09 A298 RMK A01 T00681088  RH  032%=      5-min Rain = 0
KSB1 210928Z 17004KT 07/M09 A298 RMK A01 T00681089  RH  032%=      5-min Rain = 0
KSB1 210929Z 20002KT 07/M09 A298 RMK A01 T00681088  RH  032%=      5-min Rain = 0
KSB1 210930Z 28003KT 07/M09 A298 RMK A01 T00671088  RH  032%=      5-min Rain = 0
KSB1 210931Z 29003KT 07/M09 A298 RMK A01 T00651087  RH  033%=      5-min Rain = 0
KSB1 210932Z 30001KT 06/M09 A298 RMK A01 T00641087  RH  033%=      5-min Rain = 0
KSB1 210933Z 30001KT 06/M09 A298 RMK A01 T00641087  RH  033%=      5-min Rain = 0
KSB1 210934Z 28002KT 06/M09 A298 RMK A01 T00641087  RH  033%=      5-min Rain = 0
KSB1 210935Z 26002KT 06/M09 A298 RMK A01 T00641087  RH  033%=      5-min Rain = 0
KSB1 210936Z 25001KT 06/M09 A298 RMK A01 T00641087  RH  033%=      5-min Rain = 0
KSB1 210937Z 26000KT 07/M09 A298 RMK A01 T00651086  RH  033%=      5-min Rain = 0
KSB1 210938Z 25001KT 06/M09 A298 RMK A01 T00641087  RH  033%=      5-min Rain = 0
KSB1 210939Z 25000KT 06/M09 A298 RMK A01 T00631087  RH  033%=      5-min Rain = 0
KSB1 210940Z 22001KT 06/M09 A298 RMK A01 T00631087  RH  033%=      5-min Rain = 0
KSB1 210941Z 26001KT 06/M09 A298 RMK A01 T00631086  RH  034%=      5-min Rain = 0
KSB1 210942Z 24000KT 06/M09 A298 RMK A01 T00621086  RH  034%=      5-min Rain = 0
KSB1 210943Z 24002KT 06/M09 A298 RMK A01 T00611087  RH  034%=      5-min Rain = 0
KSB1 210944Z 23001KT 06/M09 A298 RMK A01 T00601087  RH  034%=      5-min Rain = 0
KSB1 210945Z 25000KT 06/M09 A298 RMK A01 T00601087  RH  034%=      5-min Rain = 0
KSB1 210946Z 25003KT 06/M09 A298 RMK A01 T00601087  RH  034%=      5-min Rain = 0
KSB1 210947Z 25002KT 06/M09 A298 RMK A01 T00591087  RH  034%=      5-min Rain = 0
KSB1 210948Z 23002KT 06/M09 A298 RMK A01 T00581087  RH  034%=      5-min Rain = 0
KSB1 210949Z 22002KT 06/M09 A298 RMK A01 T00581087  RH  035%=      5-min Rain = 0
KSB1 210950Z 21002KT 06/M09 A298 RMK A01 T00581087  RH  035%=      5-min Rain = 0
KSB1 210951Z 21001KT 06/M09 A298 RMK A01 T00581087  RH  035%=      5-min Rain = 0
KSB1 210952Z 22002KT 06/M09 A298 RMK A01 T00581086  RH  035%=      5-min Rain = 0
KSB1 210953Z 23001KT 06/M09 A298 RMK A01 T00581086  RH  035%=      5-min Rain = 0
KSB1 210954Z 12001KT 06/M09 A298 RMK A01 T00581086  RH  035%=      5-min Rain = 0
KSB1 210955Z 19001KT 06/M09 A298 RMK A01 T00591086  RH  034%=      5-min Rain = 0
KSB1 210956Z 16001KT 06/M09 A298 RMK A01 T00601086  RH  034%=      5-min Rain = 0
KSB1 210957Z 19001KT 06/M09 A298 RMK A01 T00621085  RH  034%=      5-min Rain = 0
KSB1 210958Z 17002KT 06/M09 A298 RMK A01 T00621085  RH  034%=      5-min Rain = 0
KSB1 210959Z 18003KT 06/M09 A298 RMK A01 T00631086  RH  034%=      5-min Rain = 0
KSB1 211000Z 16003KT 06/M09 A298 RMK A01 T00641085  RH  034%=      5-min Rain = 0
KSB1 211001Z 17002KT 07/M09 A298 RMK A01 T00651085  RH  033%=      5-min Rain = 0
KSB1 211002Z 17003KT 07/M09 A298 RMK A01 T00651086  RH  033%=      5-min Rain = 0
KSB1 211003Z 17003KT 06/M09 A298 RMK A01 T00641087  RH  033%=      5-min Rain = 0
KSB1 211004Z 15004KT 06/M09 A298 RMK A01 T00631087  RH  033%=      5-min Rain = 0
KSB1 211005Z 16004KT 06/M09 A298 RMK A01 T00631086  RH  033%=      5-min Rain = 0
KSB1 211006Z 16004KT 06/M09 A298 RMK A01 T00631086  RH  033%=      5-min Rain = 0
KSB1 211007Z 18004KT 06/M09 A298 RMK A01 T00631086  RH  033%=      5-min Rain = 0
KSB1 211008Z 16003KT 06/M09 A298 RMK A01 T00631087  RH  033%=      5-min Rain = 0
KSB1 211009Z 18003KT 06/M09 A298 RMK A01 T00631087  RH  033%=      5-min Rain = 0
KSB1 211010Z 16003KT 06/M09 A298 RMK A01 T00621087  RH  033%=      5-min Rain = 0
KSB1 211011Z 15003KT 06/M09 A2979 RMK A01 T00621087  RH  034%=      5-min Rain = 0
KSB1 211012Z 16005KT 06/M09 A2979 RMK A01 T00621087  RH  034%=      5-min Rain = 0
KSB1 211013Z 17005KT 06/M09 A2979 RMK A01 T00621086  RH  034%=      5-min Rain = 0
KSB1 211014Z 15005KT 06/M09 A2979 RMK A01 T00641085  RH  034%=      5-min Rain = 0
KSB1 211015Z 19005KT 07/M08 A2979 RMK A01 T00661084  RH  033%=      5-min Rain = 0
KSB1 211016Z 18006KT 07/M09 A2979 RMK A01 T00671085  RH  033%=      5-min Rain = 0
KSB1 211017Z 18005KT 07/M09 A2979 RMK A01 T00691085  RH  033%=      5-min Rain = 0
KSB1 211018Z 18005KT 07/M09 A2979 RMK A01 T00691085  RH  032%=      5-min Rain = 0
KSB1 211019Z 17005KT 07/M09 A2979 RMK A01 T00691085  RH  032%=      5-min Rain = 0
KSB1 211020Z 18005KT 07/M09 A2979 RMK A01 T00681086  RH  032%=      5-min Rain = 0
KSB1 211021Z 18005KT 07/M09 A2979 RMK A01 T00671087  RH  032%=      5-min Rain = 0
KSB1 211022Z 18005KT 07/M09 A2979 RMK A01 T00671086  RH  033%=      5-min Rain = 0
KSB1 211023Z 17005KT 07/M09 A2979 RMK A01 T00671085  RH  033%=      5-min Rain = 0
KSB1 211024Z 18005KT 07/M09 A2979 RMK A01 T00671085  RH  033%=      5-min Rain = 0
KSB1 211025Z 18005KT 07/M09 A2979 RMK A01 T00681085  RH  033%=      5-min Rain = 0
KSB1 211026Z 18004KT 07/M08 A2979 RMK A01 T00691084  RH  033%=      5-min Rain = 0
KSB1 211027Z 18004KT 07/M08 A2979 RMK A01 T00691084  RH  033%=      5-min Rain = 0
KSB1 211028Z 18003KT 07/M08 A2979 RMK A01 T00701084  RH  032%=      5-min Rain = 0
KSB1 211029Z 19003KT 07/M08 A2979 RMK A01 T00701084  RH  032%=      5-min Rain = 0
KSB1 211030Z 19003KT 07/M09 A2979 RMK A01 T00701085  RH  032%=      5-min Rain = 0
KSB1 211031Z 19003KT 07/M09 A2979 RMK A01 T00691085  RH  033%=      5-min Rain = 0
KSB1 211032Z 15003KT 07/M08 A2979 RMK A01 T00691084  RH  033%=      5-min Rain = 0
KSB1 211033Z 15003KT 07/M08 A2979 RMK A01 T00691084  RH  033%=      5-min Rain = 0
KSB1 211034Z 16003KT 07/M08 A2979 RMK A01 T00691084  RH  033%=      5-min Rain = 0
KSB1 211035Z 17003KT 07/M08 A2979 RMK A01 T00691084  RH  033%=      5-min Rain = 0
KSB1 211036Z 16003KT 07/M08 A2979 RMK A01 T00691084  RH  033%=      5-min Rain = 0
KSB1 211037Z 15003KT 07/M09 A2979 RMK A01 T00681085  RH  033%=      5-min Rain = 0
KSB1 211038Z 22001KT 07/M09 A2979 RMK A01 T00681085  RH  033%=      5-min Rain = 0
KSB1 211039Z 26002KT 07/M09 A2979 RMK A01 T00671085  RH  033%=      5-min Rain = 0
KSB1 211040Z 26001KT 07/M09 A2979 RMK A01 T00661085  RH  033%=      5-min Rain = 0
KSB1 211041Z 30000KT 07/M09 A2979 RMK A01 T00661085  RH  033%=      5-min Rain = 0
KSB1 211042Z 30001KT 07/M08 A2979 RMK A01 T00651084  RH  033%=      5-min Rain = 0
KSB1 211043Z 30003KT 07/M09 A2979 RMK A01 T00651085  RH  034%=      5-min Rain = 0
KSB1 211044Z 29002KT 06/M08 A2979 RMK A01 T00641084  RH  034%=      5-min Rain = 0
KSB1 211045Z 30002KT 06/M08 A2979 RMK A01 T00641084  RH  034%=      5-min Rain = 0
KSB1 211046Z 30001KT 06/M08 A2979 RMK A01 T00631084  RH  034%=      5-min Rain = 0
KSB1 211047Z 32001KT 06/M08 A2979 RMK A01 T00631084  RH  034%=      5-min Rain = 0
KSB1 211048Z 31002KT 06/M08 A2979 RMK A01 T00631083  RH  034%=      5-min Rain = 0
KSB1 211049Z 30003KT 06/M08 A2979 RMK A01 T00621084  RH  034%=      5-min Rain = 0
KSB1 211050Z 29004KT 06/M08 A2979 RMK A01 T00621084  RH  034%=      5-min Rain = 0
KSB1 211051Z 29004KT 06/M08 A2979 RMK A01 T00621084  RH  034%=      5-min Rain = 0
KSB1 211052Z 30003KT 06/M08 A2979 RMK A01 T00611084  RH  035%=      5-min Rain = 0
KSB1 211053Z 30003KT 06/M08 A2979 RMK A01 T00621083  RH  035%=      5-min Rain = 0
KSB1 211054Z 30003KT 06/M08 A2979 RMK A01 T00621083  RH  034%=      5-min Rain = 0
KSB1 211055Z 30003KT 06/M08 A2979 RMK A01 T00621083  RH  034%=      5-min Rain = 0
KSB1 211056Z 29004KT 06/M08 A2979 RMK A01 T00621083  RH  034%=      5-min Rain = 0
KSB1 211057Z 29004KT 06/M08 A2979 RMK A01 T00631083  RH  034%=      5-min Rain = 0
KSB1 211058Z 29004KT 06/M08 A2979 RMK A01 T00621084  RH  034%=      5-min Rain = 0
KSB1 211059Z 29004KT 06/M08 A2979 RMK A01 T00611083  RH  035%=      5-min Rain = 0
KSB1 211100Z 29004KT 06/M08 A2979 RMK A01 T00601083  RH  035%=      5-min Rain = 0
KSB1 211101Z 30003KT 06/M08 A2979 RMK A01 T00601083  RH  035%=      5-min Rain = 0
KSB1 211102Z 32003KT 06/M08 A2979 RMK A01 T00591084  RH  035%=      5-min Rain = 0
KSB1 211103Z 32003KT 06/M08 A2979 RMK A01 T00581084  RH  035%=      5-min Rain = 0
KSB1 211104Z 32003KT 06/M09 A2979 RMK A01 T00571085  RH  035%=      5-min Rain = 0
KSB1 211105Z 32003KT 06/M09 A2979 RMK A01 T00571085  RH  035%=      5-min Rain = 0
KSB1 211106Z 31003KT 06/M08 A2979 RMK A01 T00571084  RH  035%=      5-min Rain = 0
KSB1 211107Z 29004KT 06/M08 A2979 RMK A01 T00571084  RH  035%=      5-min Rain = 0
KSB1 211108Z 29004KT 06/M08 A2979 RMK A01 T00581084  RH  035%=      5-min Rain = 0
KSB1 211109Z 29005KT 06/M08 A2979 RMK A01 T00591083  RH  035%=      5-min Rain = 0
KSB1 211110Z 28005KT 06/M08 A2979 RMK A01 T00591083  RH  035%=      5-min Rain = 0
KSB1 211111Z 28005KT 06/M08 A2979 RMK A01 T00591083  RH  035%=      5-min Rain = 0
KSB1 211112Z 28005KT 06/M08 A2979 RMK A01 T00601083  RH  035%=      5-min Rain = 0
KSB1 211113Z 27005KT 06/M08 A2979 RMK A01 T00601082  RH  035%=      5-min Rain = 0
KSB1 211114Z 27005KT 06/M08 A2979 RMK A01 T00591082  RH  035%=      5-min Rain = 0
KSB1 211115Z 27004KT 06/M08 A2979 RMK A01 T00591082  RH  036%=      5-min Rain = 0
KSB1 211116Z 27004KT 06/M08 A2979 RMK A01 T00591081  RH  036%=      5-min Rain = 0
KSB1 211117Z 27004KT 06/M08 A2979 RMK A01 T00581082  RH  036%=      5-min Rain = 0
KSB1 211118Z 27004KT 06/M08 A2979 RMK A01 T00581082  RH  036%=      5-min Rain = 0
KSB1 211119Z 26004KT 06/M08 A2979 RMK A01 T00581081  RH  036%=      5-min Rain = 0
KSB1 211120Z 27003KT 06/M08 A2979 RMK A01 T00581081  RH  036%=      5-min Rain = 0
KSB1 211121Z 26003KT 06/M08 A2979 RMK A01 T00581082  RH  036%=      5-min Rain = 0
KSB1 211122Z 26003KT 06/M08 A2979 RMK A01 T00591081  RH  036%=      5-min Rain = 0
KSB1 211123Z 26003KT 06/M08 A2979 RMK A01 T00591082  RH  036%=      5-min Rain = 0
KSB1 211124Z 26003KT 06/M08 A2979 RMK A01 T00591082  RH  036%=      5-min Rain = 0
KSB1 211125Z 26003KT 06/M08 A2979 RMK A01 T00581081  RH  036%=      5-min Rain = 0
KSB1 211126Z 27003KT 06/M08 A2979 RMK A01 T00571082  RH  036%=      5-min Rain = 0
KSB1 211127Z 28003KT 06/M08 A2979 RMK A01 T00561082  RH  036%=      5-min Rain = 0
KSB1 211128Z 28003KT 06/M08 A2979 RMK A01 T00551082  RH  036%=      5-min Rain = 0
KSB1 211129Z 29003KT 06/M08 A2979 RMK A01 T00551082  RH  037%=      5-min Rain = 0
KSB1 211130Z 28003KT 06/M08 A2979 RMK A01 T00551082  RH  036%=      5-min Rain = 0
KSB1 211131Z 27003KT 06/M08 A298 RMK A01 T00561082  RH  036%=      5-min Rain = 0
KSB1 211132Z 27003KT 06/M08 A298 RMK A01 T00561082  RH  036%=      5-min Rain = 0
KSB1 211133Z 26003KT 06/M08 A298 RMK A01 T00561082  RH  036%=      5-min Rain = 0
KSB1 211134Z 26003KT 06/M08 A298 RMK A01 T00561081  RH  037%=      5-min Rain = 0
KSB1 211135Z 25003KT 06/M08 A298 RMK A01 T00561081  RH  037%=      5-min Rain = 0
KSB1 211136Z 25003KT 06/M08 A298 RMK A01 T00561082  RH  037%=      5-min Rain = 0
KSB1 211137Z 24003KT 06/M08 A298 RMK A01 T00561081  RH  036%=      5-min Rain = 0
KSB1 211138Z 24003KT 06/M08 A298 RMK A01 T00561082  RH  036%=      5-min Rain = 0
KSB1 211139Z 24003KT 06/M08 A298 RMK A01 T00561082  RH  036%=      5-min Rain = 0
KSB1 211140Z 24003KT 06/M08 A298 RMK A01 T00561082  RH  036%=      5-min Rain = 0
KSB1 211141Z 25003KT 06/M08 A298 RMK A01 T00561082  RH  036%=      5-min Rain = 0
KSB1 211142Z 24002KT 06/M08 A298 RMK A01 T00561082  RH  037%=      5-min Rain = 0
KSB1 211143Z 25003KT 06/M08 A298 RMK A01 T00551082  RH  037%=      5-min Rain = 0
KSB1 211144Z 25003KT 06/M08 A298 RMK A01 T00551082  RH  037%=      5-min Rain = 0
KSB1 211145Z 23002KT 06/M08 A298 RMK A01 T00551081  RH  037%=      5-min Rain = 0
KSB1 211146Z 23001KT 06/M08 A298 RMK A01 T00551081  RH  037%=      5-min Rain = 0
KSB1 211147Z 21001KT 06/M08 A298 RMK A01 T00551081  RH  037%=      5-min Rain = 0
KSB1 211148Z 23000KT 06/M08 A298 RMK A01 T00551082  RH  037%=      5-min Rain = 0
KSB1 211149Z 23001KT 06/M08 A298 RMK A01 T00551081  RH  037%=      5-min Rain = 0
KSB1 211150Z 25000KT 05/M08 A298 RMK A01 T00541082  RH  037%=      5-min Rain = 0
KSB1 211151Z 00000KT 05/M08 A298 RMK A01 T00541082  RH  037%=      5-min Rain = 0
KSB1 211152Z 00000KT 05/M08 A298 RMK A01 T00531082  RH  037%=      5-min Rain = 0
KSB1 211153Z 00000KT 05/M08 A298 RMK A01 T00531082  RH  037%=      5-min Rain = 0
KSB1 211154Z 00000KT 05/M08 A298 RMK A01 T00531082  RH  037%=      5-min Rain = 0
KSB1 211155Z 00000KT 05/M08 A298 RMK A01 T00531082  RH  037%=      5-min Rain = 0
KSB1 211156Z 00000KT 05/M08 A298 RMK A01 T00531082  RH  037%=      5-min Rain = 0
KSB1 211157Z 02000KT 05/M08 A298 RMK A01 T00531082  RH  037%=      5-min Rain = 0
KSB1 211158Z 02001KT 05/M08 A298 RMK A01 T00531082  RH  037%=      5-min Rain = 0
KSB1 211159Z 02001KT 05/M08 A298 RMK A01 T00531082  RH  037%=      5-min Rain = 0
KSB1 211200Z 00000KT 05/M08 A298 RMK A01 T00541082  RH  037%=      5-min Rain = 0
KSB1 211201Z 00000KT 05/M08 A298 RMK A01 T00541082  RH  037%=      5-min Rain = 0
KSB1 211202Z 04000KT 05/M08 A298 RMK A01 T00541082  RH  037%=      5-min Rain = 0
KSB1 211203Z 04000KT 06/M08 A298 RMK A01 T00551082  RH  037%=      5-min Rain = 0
KSB1 211204Z 05000KT 06/M08 A298 RMK A01 T00551082  RH  037%=      5-min Rain = 0
KSB1 211205Z 00000KT 06/M08 A298 RMK A01 T00551081  RH  037%=      5-min Rain = 0
KSB1 211206Z 04001KT 06/M08 A298 RMK A01 T00551082  RH  037%=      5-min Rain = 0
KSB1 211207Z 01000KT 06/M08 A298 RMK A01 T00561082  RH  036%=      5-min Rain = 0
KSB1 211208Z 11001KT 06/M08 A298 RMK A01 T00561082  RH  036%=      5-min Rain = 0
KSB1 211209Z 13001KT 06/M08 A298 RMK A01 T00561082  RH  036%=      5-min Rain = 0
KSB1 211210Z 14002KT 06/M08 A298 RMK A01 T00561081  RH  037%=      5-min Rain = 0
KSB1 211211Z 13001KT 06/M08 A298 RMK A01 T00561081  RH  036%=      5-min Rain = 0
KSB1 211212Z 12002KT 06/M08 A298 RMK A01 T00571081  RH  036%=      5-min Rain = 0
KSB1 211213Z 11001KT 06/M08 A298 RMK A01 T00571081  RH  036%=      5-min Rain = 0
KSB1 211214Z 10001KT 06/M08 A298 RMK A01 T00571081  RH  036%=      5-min Rain = 0
KSB1 211215Z 09001KT 06/M08 A298 RMK A01 T00571081  RH  036%=      5-min Rain = 0
KSB1 211216Z 04002KT 06/M08 A298 RMK A01 T00561082  RH  036%=      5-min Rain = 0
KSB1 211217Z 06002KT 05/M08 A298 RMK A01 T00541083  RH  036%=      5-min Rain = 0
KSB1 211218Z 07002KT 05/M08 A298 RMK A01 T00531083  RH  037%=      5-min Rain = 0
KSB1 211219Z 09003KT 05/M08 A298 RMK A01 T00521084  RH  037%=      5-min Rain = 0
KSB1 211220Z 10002KT 05/M08 A298 RMK A01 T00521084  RH  037%=      5-min Rain = 0
KSB1 211221Z 10003KT 05/M08 A298 RMK A01 T00511084  RH  037%=      5-min Rain = 0
KSB1 211222Z 08003KT 05/M08 A298 RMK A01 T00511084  RH  037%=      5-min Rain = 0
KSB1 211223Z 09003KT 05/M09 A298 RMK A01 T00511085  RH  037%=      5-min Rain = 0
KSB1 211224Z 11004KT 05/M09 A298 RMK A01 T00511086  RH  037%=      5-min Rain = 0
KSB1 211225Z 11003KT 05/M09 A298 RMK A01 T00511087  RH  036%=      5-min Rain = 0
KSB1 211226Z 12003KT 05/M09 A298 RMK A01 T00511087  RH  036%=      5-min Rain = 0
KSB1 211227Z 11003KT 05/M09 A298 RMK A01 T00521088  RH  036%=      5-min Rain = 0
KSB1 211228Z 11003KT 05/M09 A298 RMK A01 T00521088  RH  036%=      5-min Rain = 0
KSB1 211229Z 13003KT 05/M09 A298 RMK A01 T00521089  RH  035%=      5-min Rain = 0
KSB1 211230Z 12003KT 05/M09 A298 RMK A01 T00521088  RH  036%=      5-min Rain = 0
KSB1 211231Z 13003KT 05/M09 A298 RMK A01 T00521088  RH  036%=      5-min Rain = 0
KSB1 211232Z 14003KT 05/M09 A298 RMK A01 T00521088  RH  036%=      5-min Rain = 0
KSB1 211233Z 14004KT 05/M09 A298 RMK A01 T00531086  RH  036%=      5-min Rain = 0
KSB1 211234Z 15005KT 05/M09 A298 RMK A01 T00541085  RH  036%=      5-min Rain = 0
KSB1 211235Z 15005KT 06/M08 A298 RMK A01 T00551083  RH  036%=      5-min Rain = 0
KSB1 211236Z 16005KT 06/M08 A298 RMK A01 T00561083  RH  036%=      5-min Rain = 0
KSB1 211237Z 15005KT 06/M08 A298 RMK A01 T00571082  RH  036%=      5-min Rain = 0
KSB1 211238Z 16004KT 06/M08 A298 RMK A01 T00571082  RH  036%=      5-min Rain = 0
KSB1 211239Z 15004KT 06/M08 A298 RMK A01 T00571082  RH  036%=      5-min Rain = 0
KSB1 211240Z 14004KT 06/M08 A298 RMK A01 T00561083  RH  036%=      5-min Rain = 0
KSB1 211241Z 12002KT 06/M08 A298 RMK A01 T00551084  RH  036%=      5-min Rain = 0
KSB1 211242Z 13002KT 05/M09 A298 RMK A01 T00531087  RH  036%=      5-min Rain = 0
KSB1 211243Z 12002KT 05/M09 A298 RMK A01 T00521089  RH  035%=      5-min Rain = 0
KSB1 211244Z 12003KT 05/M09 A298 RMK A01 T00521090  RH  035%=      5-min Rain = 0
KSB1 211245Z 12002KT 05/M09 A298 RMK A01 T00521089  RH  035%=      5-min Rain = 0
KSB1 211246Z 12002KT 05/M09 A298 RMK A01 T00511090  RH  035%=      5-min Rain = 0
KSB1 211247Z 12002KT 05/M09 A298 RMK A01 T00511090  RH  035%=      5-min Rain = 0
KSB1 211248Z 12002KT 05/M09 A298 RMK A01 T00511090  RH  035%=      5-min Rain = 0
KSB1 211249Z 12002KT 05/M09 A298 RMK A01 T00501090  RH  035%=      5-min Rain = 0
KSB1 211250Z 12002KT 05/M09 A298 RMK A01 T00501090  RH  036%=      5-min Rain = 0
KSB1 211251Z 12002KT 05/M09 A298 RMK A01 T00491091  RH  036%=      5-min Rain = 0
KSB1 211252Z 12002KT 05/M09 A298 RMK A01 T00491091  RH  036%=      5-min Rain = 0
KSB1 211253Z 13002KT 05/M09 A298 RMK A01 T00491091  RH  036%=      5-min Rain = 0
KSB1 211254Z 14002KT 05/M09 A298 RMK A01 T00491091  RH  036%=      5-min Rain = 0
KSB1 211255Z 15002KT 05/M09 A298 RMK A01 T00481091  RH  036%=      5-min Rain = 0
KSB1 211256Z 14003KT 05/M09 A298 RMK A01 T00481090  RH  036%=      5-min Rain = 0
KSB1 211257Z 14003KT 05/M09 A298 RMK A01 T00481090  RH  036%=      5-min Rain = 0
KSB1 211258Z 14003KT 05/M09 A298 RMK A01 T00481089  RH  036%=      5-min Rain = 0
KSB1 211259Z 15003KT 05/M09 A298 RMK A01 T00481088  RH  036%=      5-min Rain = 0
KSB1 211300Z 15003KT 05/M09 A298 RMK A01 T00491087  RH  037%=      5-min Rain = 0
KSB1 211301Z 16003KT 05/M09 A298 RMK A01 T00491087  RH  037%=      5-min Rain = 0
KSB1 211302Z 16003KT 05/M09 A298 RMK A01 T00501086  RH  037%=      5-min Rain = 0
KSB1 211303Z 17003KT 05/M09 A298 RMK A01 T00501086  RH  037%=      5-min Rain = 0
KSB1 211304Z 16003KT 05/M09 A298 RMK A01 T00501086  RH  037%=      5-min Rain = 0
KSB1 211305Z 16003KT 05/M09 A298 RMK A01 T00501086  RH  037%=      5-min Rain = 0
KSB1 211306Z 16003KT 05/M09 A298 RMK A01 T00491086  RH  037%=      5-min Rain = 0
KSB1 211307Z 15002KT 05/M09 A298 RMK A01 T00491086  RH  037%=      5-min Rain = 0
KSB1 211308Z 16002KT 05/M09 A298 RMK A01 T00491086  RH  037%=      5-min Rain = 0
KSB1 211309Z 16003KT 05/M09 A298 RMK A01 T00481086  RH  037%=      5-min Rain = 0
KSB1 211310Z 16003KT 05/M09 A298 RMK A01 T00481086  RH  037%=      5-min Rain = 0
KSB1 211311Z 16003KT 05/M09 A298 RMK A01 T00481086  RH  037%=      5-min Rain = 0
KSB1 211312Z 17003KT 05/M09 A298 RMK A01 T00481085  RH  037%=      5-min Rain = 0
KSB1 211313Z 18003KT 05/M09 A298 RMK A01 T00491085  RH  037%=      5-min Rain = 0
KSB1 211314Z 18002KT 05/M09 A298 RMK A01 T00481085  RH  037%=      5-min Rain = 0
KSB1 211315Z 16002KT 05/M09 A298 RMK A01 T00481085  RH  038%=      5-min Rain = 0
KSB1 211316Z 17002KT 05/M08 A298 RMK A01 T00481084  RH  038%=      5-min Rain = 0
KSB1 211317Z 18002KT 05/M08 A298 RMK A01 T00481084  RH  038%=      5-min Rain = 0
KSB1 211318Z 18002KT 05/M08 A298 RMK A01 T00481084  RH  038%=      5-min Rain = 0
KSB1 211319Z 18001KT 05/M08 A298 RMK A01 T00481084  RH  038%=      5-min Rain = 0
KSB1 211320Z 20001KT 05/M08 A298 RMK A01 T00481084  RH  038%=      5-min Rain = 0
KSB1 211321Z 20000KT 05/M08 A298 RMK A01 T00481083  RH  038%=      5-min Rain = 0
KSB1 211322Z 20001KT 05/M08 A298 RMK A01 T00481083  RH  038%=      5-min Rain = 0
KSB1 211323Z 19001KT 05/M08 A298 RMK A01 T00481083  RH  038%=      5-min Rain = 0
KSB1 211324Z 17000KT 05/M08 A298 RMK A01 T00481082  RH  038%=      5-min Rain = 0
KSB1 211325Z 18001KT 05/M08 A298 RMK A01 T00491082  RH  038%=      5-min Rain = 0
KSB1 211326Z 16002KT 05/M08 A298 RMK A01 T00501082  RH  038%=      5-min Rain = 0
KSB1 211327Z 16002KT 05/M08 A298 RMK A01 T00501082  RH  038%=      5-min Rain = 0
KSB1 211328Z 16002KT 05/M08 A298 RMK A01 T00511082  RH  038%=      5-min Rain = 0
KSB1 211329Z 17003KT 05/M08 A298 RMK A01 T00511082  RH  038%=      5-min Rain = 0
KSB1 211330Z 15002KT 05/M08 A298 RMK A01 T00491083  RH  038%=      5-min Rain = 0
KSB1 211331Z 15003KT 05/M08 A298 RMK A01 T00481083  RH  038%=      5-min Rain = 0
KSB1 211332Z 14003KT 05/M08 A298 RMK A01 T00481083  RH  038%=      5-min Rain = 0
KSB1 211333Z 15004KT 05/M08 A298 RMK A01 T00481083  RH  038%=      5-min Rain = 0
KSB1 211334Z 14004KT 05/M08 A298 RMK A01 T00481083  RH  038%=      5-min Rain = 0
KSB1 211335Z 15003KT 05/M08 A298 RMK A01 T00481083  RH  038%=      5-min Rain = 0
KSB1 211336Z 15004KT 05/M08 A298 RMK A01 T00471084  RH  038%=      5-min Rain = 0
KSB1 211337Z 15003KT 05/M08 A298 RMK A01 T00471083  RH  038%=      5-min Rain = 0
KSB1 211338Z 15002KT 05/M08 A298 RMK A01 T00471083  RH  038%=      5-min Rain = 0
KSB1 211339Z 15002KT 05/M08 A298 RMK A01 T00481083  RH  038%=      5-min Rain = 0
KSB1 211340Z 15002KT 05/M08 A298 RMK A01 T00471084  RH  038%=      5-min Rain = 0
KSB1 211341Z 15001KT 05/M09 A298 RMK A01 T00461085  RH  038%=      5-min Rain = 0
KSB1 211342Z 11001KT 05/M08 A298 RMK A01 T00451084  RH  038%=      5-min Rain = 0
KSB1 211343Z 00000KT 05/M08 A298 RMK A01 T00451084  RH  039%=      5-min Rain = 0
KSB1 211344Z 31001KT 05/M08 A298 RMK A01 T00451083  RH  039%=      5-min Rain = 0
KSB1 211345Z 00000KT 05/M08 A298 RMK A01 T00461083  RH  038%=      5-min Rain = 0
KSB1 211346Z 00000KT 05/M08 A298 RMK A01 T00471083  RH  038%=      5-min Rain = 0
KSB1 211347Z 36001KT 05/M08 A298 RMK A01 T00481083  RH  038%=      5-min Rain = 0
KSB1 211348Z 01001KT 05/M08 A298 RMK A01 T00501082  RH  038%=      5-min Rain = 0
KSB1 211349Z 36001KT 05/M08 A298 RMK A01 T00501083  RH  038%=      5-min Rain = 0
KSB1 211350Z 34001KT 05/M08 A298 RMK A01 T00501083  RH  038%=      5-min Rain = 0
KSB1 211351Z 02002KT 05/M08 A298 RMK A01 T00501083  RH  038%=      5-min Rain = 0
KSB1 211352Z 03001KT 05/M08 A298 RMK A01 T00501082  RH  038%=      5-min Rain = 0
KSB1 211353Z 00000KT 05/M08 A298 RMK A01 T00511082  RH  038%=      5-min Rain = 0
KSB1 211354Z 17000KT 05/M08 A298 RMK A01 T00511082  RH  038%=      5-min Rain = 0
KSB1 211355Z 17001KT 05/M08 A298 RMK A01 T00521081  RH  038%=      5-min Rain = 0
KSB1 211356Z 16000KT 05/M08 A298 RMK A01 T00531079  RH  038%=      5-min Rain = 0
KSB1 211357Z 15002KT 05/M08 A298 RMK A01 T00541079  RH  038%=      5-min Rain = 0
KSB1 211358Z 17001KT 05/M08 A2981 RMK A01 T00541079  RH  037%=      5-min Rain = 0
KSB1 211359Z 20001KT 06/M08 A298 RMK A01 T00551080  RH  037%=      5-min Rain = 0
KSB1 211400Z 03000KT 06/M08 A298 RMK A01 T00551080  RH  037%=      5-min Rain = 0
KSB1 211401Z 03002KT 06/M08 A298 RMK A01 T00551081  RH  037%=      5-min Rain = 0
KSB1 211402Z 05002KT 05/M08 A2981 RMK A01 T00541081  RH  037%=      5-min Rain = 0
KSB1 211403Z 06000KT 05/M08 A2981 RMK A01 T00531081  RH  037%=      5-min Rain = 0
KSB1 211404Z 09000KT 05/M08 A2981 RMK A01 T00511081  RH  038%=      5-min Rain = 0
KSB1 211405Z 34001KT 05/M08 A2981 RMK A01 T00511081  RH  038%=      5-min Rain = 0
KSB1 211406Z 12000KT 05/M08 A2981 RMK A01 T00511081  RH  038%=      5-min Rain = 0
KSB1 211407Z 13002KT 05/M08 A2981 RMK A01 T00521081  RH  038%=      5-min Rain = 0
KSB1 211408Z 12001KT 05/M08 A2981 RMK A01 T00541079  RH  038%=      5-min Rain = 0
KSB1 211409Z 12002KT 06/M08 A2981 RMK A01 T00571078  RH  037%=      5-min Rain = 0
KSB1 211410Z 11003KT 06/M08 A2981 RMK A01 T00581079  RH  037%=      5-min Rain = 0
KSB1 211411Z 05003KT 06/M08 A2981 RMK A01 T00581080  RH  036%=      5-min Rain = 0
KSB1 211412Z 06002KT 06/M08 A2981 RMK A01 T00561081  RH  036%=      5-min Rain = 0
KSB1 211413Z 07001KT 06/M08 A2981 RMK A01 T00551082  RH  037%=      5-min Rain = 0
KSB1 211414Z 05002KT 05/M08 A2981 RMK A01 T00541082  RH  037%=      5-min Rain = 0
KSB1 211415Z 07001KT 05/M08 A2981 RMK A01 T00531084  RH  037%=      5-min Rain = 0
KSB1 211416Z 07001KT 05/M08 A2981 RMK A01 T00531083  RH  037%=      5-min Rain = 0
KSB1 211417Z 07001KT 05/M08 A2981 RMK A01 T00531083  RH  037%=      5-min Rain = 0
KSB1 211418Z 10002KT 05/M08 A2981 RMK A01 T00531083  RH  037%=      5-min Rain = 0
KSB1 211419Z 08002KT 05/M08 A2981 RMK A01 T00531083  RH  037%=      5-min Rain = 0
KSB1 211420Z 06004KT 06/M08 A2981 RMK A01 T00551082  RH  037%=      5-min Rain = 0
KSB1 211421Z 07004KT 06/M08 A2981 RMK A01 T00551083  RH  036%=      5-min Rain = 0
KSB1 211422Z 05002KT 06/M08 A2981 RMK A01 T00551084  RH  036%=      5-min Rain = 0
KSB1 211423Z 03002KT 06/M08 A2981 RMK A01 T00551084  RH  036%=      5-min Rain = 0
KSB1 211424Z 04002KT 06/M08 A2981 RMK A01 T00551084  RH  036%=      5-min Rain = 0
KSB1 211425Z 07001KT 05/M08 A2981 RMK A01 T00541084  RH  036%=      5-min Rain = 0
KSB1 211426Z 09000KT 05/M08 A2981 RMK A01 T00541084  RH  036%=      5-min Rain = 0
KSB1 211427Z 06002KT 05/M08 A2981 RMK A01 T00541083  RH  036%=      5-min Rain = 0
KSB1 211428Z 03002KT 06/M08 A2981 RMK A01 T00551083  RH  036%=      5-min Rain = 0
KSB1 211429Z 06002KT 06/M08 A2981 RMK A01 T00551083  RH  036%=      5-min Rain = 0
KSB1 211430Z 08001KT 06/M08 A2981 RMK A01 T00561083  RH  036%=      5-min Rain = 0
KSB1 211431Z 03002KT 06/M08 A2981 RMK A01 T00571083  RH  036%=      5-min Rain = 0
KSB1 211432Z 04002KT 06/M08 A2981 RMK A01 T00571082  RH  036%=      5-min Rain = 0
KSB1 211433Z 05003KT 06/M08 A2981 RMK A01 T00581082  RH  036%=      5-min Rain = 0
KSB1 211434Z 06002KT 06/M08 A2981 RMK A01 T00571083  RH  036%=      5-min Rain = 0
KSB1 211435Z 05002KT 06/M08 A2981 RMK A01 T00571083  RH  036%=      5-min Rain = 0
KSB1 211436Z 03002KT 06/M08 A2981 RMK A01 T00561083  RH  036%=      5-min Rain = 0
KSB1 211437Z 05002KT 06/M08 A2982 RMK A01 T00551083  RH  036%=      5-min Rain = 0
KSB1 211438Z 07001KT 06/M08 A2982 RMK A01 T00551082  RH  036%=      5-min Rain = 0
KSB1 211439Z 06001KT 06/M08 A2982 RMK A01 T00551083  RH  036%=      5-min Rain = 0
KSB1 211440Z 05001KT 06/M08 A2982 RMK A01 T00561083  RH  036%=      5-min Rain = 0
KSB1 211441Z 06001KT 06/M08 A2982 RMK A01 T00571082  RH  036%=      5-min Rain = 0
KSB1 211442Z 08000KT 06/M08 A2982 RMK A01 T00581082  RH  036%=      5-min Rain = 0
KSB1 211443Z 09001KT 06/M08 A2982 RMK A01 T00591083  RH  035%=      5-min Rain = 0
KSB1 211444Z 07000KT 06/M08 A2982 RMK A01 T00601083  RH  035%=      5-min Rain = 0
KSB1 211445Z 08001KT 06/M08 A2982 RMK A01 T00611083  RH  035%=      5-min Rain = 0
KSB1 211446Z 10002KT 06/M08 A2982 RMK A01 T00611083  RH  035%=      5-min Rain = 0
KSB1 211447Z 12002KT 06/M08 A2982 RMK A01 T00621083  RH  035%=      5-min Rain = 0
KSB1 211448Z 10001KT 06/M08 A2982 RMK A01 T00621082  RH  035%=      5-min Rain = 0
KSB1 211449Z 09002KT 06/M08 A2982 RMK A01 T00631082  RH  035%=      5-min Rain = 0
KSB1 211450Z 09002KT 06/M08 A2982 RMK A01 T00631082  RH  035%=      5-min Rain = 0
KSB1 211451Z 12003KT 06/M08 A2982 RMK A01 T00631082  RH  035%=      5-min Rain = 0
KSB1 211452Z 12003KT 06/M08 A2982 RMK A01 T00641079  RH  035%=      5-min Rain = 0
KSB1 211453Z 13005KT 07/M08 A2982 RMK A01 T00661076  RH  035%=      5-min Rain = 0
KSB1 211454Z 14005KT 07/M08 A2982 RMK A01 T00671076  RH  035%=      5-min Rain = 0
KSB1 211455Z 14005KT 07/M08 A2982 RMK A01 T00691075  RH  035%=      5-min Rain = 0
KSB1 211456Z 15005KT 07/M08 A2982 RMK A01 T00701075  RH  035%=      5-min Rain = 0
KSB1 211457Z 15007KT 07/M08 A2982 RMK A01 T00721075  RH  034%=      5-min Rain = 0
KSB1 211458Z 16007KT 07/M07 A2982 RMK A01 T00731073  RH  034%=      5-min Rain = 0
KSB1 211459Z 17008KT 07/M07 A2982 RMK A01 T00741073  RH  034%=      5-min Rain = 0
KSB1 211500Z 16007KT 08/M07 A2982 RMK A01 T00761072  RH  034%=      5-min Rain = 0
KSB1 211501Z 15007KT 08/M07 A2982 RMK A01 T00771072  RH  034%=      5-min Rain = 0
KSB1 211502Z 16006KT 08/M07 A2982 RMK A01 T00771072  RH  034%=      5-min Rain = 0
KSB1 211503Z 16007KT 08/M07 A2982 RMK A01 T00791072  RH  034%=      5-min Rain = 0
KSB1 211504Z 18008KT 08/M07 A2982 RMK A01 T00801072  RH  033%=      5-min Rain = 0
KSB1 211505Z 17007KT 08/M07 A2982 RMK A01 T00801072  RH  033%=      5-min Rain = 0
KSB1 211506Z 16007KT 08/M07 A2982 RMK A01 T00801072  RH  033%=      5-min Rain = 0
KSB1 211507Z 17006KT 08/M07 A2982 RMK A01 T00811072  RH  033%=      5-min Rain = 0
KSB1 211508Z 16006KT 08/M07 A2982 RMK A01 T00821072  RH  033%=      5-min Rain = 0
KSB1 211509Z 15005KT 08/M07 A2982 RMK A01 T00811072  RH  033%=      5-min Rain = 0
KSB1 211510Z 15005KT 08/M07 A2982 RMK A01 T00821072  RH  033%=      5-min Rain = 0
KSB1 211511Z 15005KT 08/M07 A2982 RMK A01 T00831072  RH  033%=      5-min Rain = 0
KSB1 211512Z 14005KT 08/M07 A2982 RMK A01 T00831073  RH  032%=      5-min Rain = 0
KSB1 211513Z 14003KT 08/M07 A2982 RMK A01 T00841072  RH  032%=      5-min Rain = 0
KSB1 211514Z 15003KT 09/M07 A2982 RMK A01 T00851073  RH  032%=      5-min Rain = 0
KSB1 211515Z 16003KT 09/M07 A2982 RMK A01 T00851072  RH  032%=      5-min Rain = 0
KSB1 211516Z 17005KT 08/M07 A2982 RMK A01 T00841074  RH  032%=      5-min Rain = 0
KSB1 211517Z 15002KT 08/M08 A2982 RMK A01 T00811075  RH  032%=      5-min Rain = 0
KSB1 211518Z 15005KT 08/M07 A2982 RMK A01 T00811074  RH  032%=      5-min Rain = 0
KSB1 211519Z 14010G15KT 09/M07 A2982 RMK A01 T00851070  RH  033%=      5-min Rain = 0
KSB1 211520Z 15010KT 09/M07 A2982 RMK A01 T00891067  RH  033%=      5-min Rain = 0
KSB1 211521Z 15012KT 09/M07 A2982 RMK A01 T00911068  RH  032%=      5-min Rain = 0
KSB1 211522Z 16009KT 09/M07 A2982 RMK A01 T00921068  RH  032%=      5-min Rain = 0
KSB1 211523Z 16010KT 09/M07 A2982 RMK A01 T00931068  RH  031%=      5-min Rain = 0
KSB1 211524Z 15009KT 09/M07 A2982 RMK A01 T00941068  RH  031%=      5-min Rain = 0
KSB1 211525Z 15011KT 10/M07 A2982 RMK A01 T00951067  RH  031%=      5-min Rain = 0
KSB1 211526Z 16011KT 09/M07 A2982 RMK A01 T00941068  RH  031%=      5-min Rain = 0
KSB1 211527Z 16012KT 09/M07 A2982 RMK A01 T00941068  RH  031%=      5-min Rain = 0
KSB1 211528Z 16011KT 10/M07 A2982 RMK A01 T00951068  RH  031%=      5-min Rain = 0
KSB1 211529Z 16012KT 10/M07 A2982 RMK A01 T00951068  RH  031%=      5-min Rain = 0
KSB1 211530Z 16013KT 10/M07 A2982 RMK A01 T00951068  RH  031%=      5-min Rain = 0
KSB1 211531Z 16012KT 10/M07 A2982 RMK A01 T00951068  RH  031%=      5-min Rain = 0
KSB1 211532Z 16014KT 10/M07 A2982 RMK A01 T00951068  RH  031%=      5-min Rain = 0
KSB1 211533Z 16014KT 10/M07 A2982 RMK A01 T00961069  RH  031%=      5-min Rain = 0
KSB1 211534Z 16013KT 10/M07 A2982 RMK A01 T00961069  RH  030%=      5-min Rain = 0
KSB1 211535Z 16012KT 10/M07 A2982 RMK A01 T00971068  RH  030%=      5-min Rain = 0
KSB1 211536Z 16014KT 10/M07 A2982 RMK A01 T00971069  RH  030%=      5-min Rain = 0
KSB1 211537Z 15013KT 10/M07 A2982 RMK A01 T00971070  RH  030%=      5-min Rain = 0
KSB1 211538Z 16013KT 10/M07 A2982 RMK A01 T00981069  RH  030%=      5-min Rain = 0
KSB1 211539Z 16013G18KT 10/M07 A2982 RMK A01 T00991069  RH  030%=      5-min Rain = 0
KSB1 211540Z 16016KT 10/M07 A2982 RMK A01 T00991069  RH  030%=      5-min Rain = 0
KSB1 211541Z 16015KT 10/M07 A2982 RMK A01 T00981070  RH  030%=      5-min Rain = 0
KSB1 211542Z 16016KT 10/M07 A2982 RMK A01 T00981070  RH  030%=      5-min Rain = 0
KSB1 211543Z 16014KT 10/M07 A2982 RMK A01 T00971070  RH  030%=      5-min Rain = 0
KSB1 211544Z 16011KT 10/M07 A2982 RMK A01 T00971069  RH  030%=      5-min Rain = 0
KSB1 211545Z 15012KT 10/M07 A2982 RMK A01 T01001068  RH  030%=      5-min Rain = 0
KSB1 211546Z 15011KT 10/M07 A2982 RMK A01 T01021067  RH  030%=      5-min Rain = 0
KSB1 211547Z 16010KT 10/M07 A2982 RMK A01 T01041067  RH  029%=      5-min Rain = 0
KSB1 211548Z 16009KT 10/M07 A2982 RMK A01 T01041068  RH  029%=      5-min Rain = 0
KSB1 211549Z 17012KT 11/M07 A2982 RMK A01 T01051068  RH  029%=      5-min Rain = 0
KSB1 211550Z 16013KT 11/M07 A2982 RMK A01 T01051068  RH  029%=      5-min Rain = 0
KSB1 211551Z 16013KT 10/M07 A2982 RMK A01 T01031069  RH  029%=      5-min Rain = 0
KSB1 211552Z 15011KT 10/M07 A2982 RMK A01 T01021070  RH  029%=      5-min Rain = 0
KSB1 211553Z 16013KT 10/M07 A2982 RMK A01 T01021068  RH  029%=      5-min Rain = 0
KSB1 211554Z 16013KT 10/M07 A2982 RMK A01 T01021069  RH  029%=      5-min Rain = 0
KSB1 211555Z 16012KT 10/M07 A2983 RMK A01 T01021069  RH  029%=      5-min Rain = 0
KSB1 211556Z 16013KT 10/M07 A2982 RMK A01 T01031069  RH  029%=      5-min Rain = 0
KSB1 211557Z 16013KT 10/M07 A2982 RMK A01 T01031069  RH  029%=      5-min Rain = 0
KSB1 211558Z 17012KT 10/M07 A2982 RMK A01 T01021069  RH  029%=      5-min Rain = 0
KSB1 211559Z 16011KT 10/M07 A2982 RMK A01 T01031068  RH  029%=      5-min Rain = 0
KSB1 211600Z 16013KT 11/M07 A2982 RMK A01 T01061066  RH  029%=      5-min Rain = 0
KSB1 211601Z 16014KT 11/M07 A2982 RMK A01 T01071068  RH  029%=      5-min Rain = 0
KSB1 211602Z 16016KT 11/M07 A2982 RMK A01 T01061069  RH  029%=      5-min Rain = 0
KSB1 211603Z 16015KT 11/M07 A2982 RMK A01 T01061069  RH  029%=      5-min Rain = 0
KSB1 211604Z 16014KT 11/M07 A2982 RMK A01 T01051069  RH  029%=      5-min Rain = 0
KSB1 211605Z 16015KT 11/M07 A2982 RMK A01 T01071068  RH  029%=      5-min Rain = 0
KSB1 211606Z 16015KT 11/M07 A2982 RMK A01 T01071069  RH  028%=      5-min Rain = 0
KSB1 211607Z 16014KT 11/M07 A2982 RMK A01 T01071069  RH  028%=      5-min Rain = 0
KSB1 211608Z 16015KT 11/M07 A2982 RMK A01 T01071068  RH  029%=      5-min Rain = 0
KSB1 211609Z 15014KT 11/M07 A2982 RMK A01 T01071068  RH  029%=      5-min Rain = 0
KSB1 211610Z 15014KT 11/M07 A2982 RMK A01 T01081068  RH  028%=      5-min Rain = 0
KSB1 211611Z 15012KT 11/M07 A2982 RMK A01 T01091068  RH  028%=      5-min Rain = 0
KSB1 211612Z 16015KT 11/M07 A2982 RMK A01 T01111067  RH  028%=      5-min Rain = 0
KSB1 211613Z 16013KT 11/M07 A2982 RMK A01 T01111068  RH  028%=      5-min Rain = 0
KSB1 211614Z 15013KT 11/M07 A2982 RMK A01 T01111068  RH  028%=      5-min Rain = 0
KSB1 211615Z 15012KT 11/M07 A2982 RMK A01 T01121068  RH  028%=      5-min Rain = 0
KSB1 211616Z 16011KT 11/M07 A2982 RMK A01 T01131067  RH  028%=      5-min Rain = 0
KSB1 211617Z 16012KT 12/M07 A2982 RMK A01 T01151066  RH  027%=      5-min Rain = 0
KSB1 211618Z 16012KT 12/M07 A2982 RMK A01 T01161067  RH  027%=      5-min Rain = 0
KSB1 211619Z 16013KT 12/M07 A2982 RMK A01 T01151068  RH  027%=      5-min Rain = 0
KSB1 211620Z 16011KT 11/M07 A2982 RMK A01 T01141067  RH  028%=      5-min Rain = 0
KSB1 211621Z 15011KT 12/M07 A2983 RMK A01 T01161065  RH  027%=      5-min Rain = 0
KSB1 211622Z 15013KT 12/M07 A2982 RMK A01 T01171066  RH  027%=      5-min Rain = 0
KSB1 211623Z 16011KT 12/M07 A2982 RMK A01 T01181066  RH  027%=      5-min Rain = 0
KSB1 211624Z 16014KT 12/M07 A2982 RMK A01 T01181066  RH  027%=      5-min Rain = 0
KSB1 211625Z 16014KT 12/M07 A2982 RMK A01 T01191067  RH  027%=      5-min Rain = 0
KSB1 211626Z 17013KT 12/M07 A2982 RMK A01 T01181067  RH  027%=      5-min Rain = 0
KSB1 211627Z 17014KT 12/M07 A2982 RMK A01 T01181067  RH  027%=      5-min Rain = 0
KSB1 211628Z 17014KT 12/M07 A2982 RMK A01 T01181067  RH  027%=      5-min Rain = 0
KSB1 211629Z 17012KT 12/M07 A2982 RMK A01 T01191065  RH  027%=      5-min Rain = 0
KSB1 211630Z 17015KT 12/M07 A2982 RMK A01 T01211065  RH  027%=      5-min Rain = 0
KSB1 211631Z 17013KT 12/M07 A2982 RMK A01 T01201067  RH  027%=      5-min Rain = 0
KSB1 211632Z 17015KT 12/M07 A2982 RMK A01 T01201066  RH  027%=      5-min Rain = 0
KSB1 211633Z 17016KT 12/M07 A2982 RMK A01 T01181067  RH  027%=      5-min Rain = 0
KSB1 211634Z 17014KT 12/M07 A2982 RMK A01 T01171067  RH  027%=      5-min Rain = 0
KSB1 211635Z 17014KT 12/M07 A2982 RMK A01 T01171066  RH  027%=      5-min Rain = 0
KSB1 211636Z 17012KT 12/M06 A2982 RMK A01 T01181064  RH  027%=      5-min Rain = 0
KSB1 211637Z 17016KT 12/M06 A2981 RMK A01 T01211064  RH  027%=      5-min Rain = 0
KSB1 211638Z 17015KT 12/M07 A2981 RMK A01 T01201065  RH  027%=      5-min Rain = 0
KSB1 211639Z 17014KT 12/M07 A2982 RMK A01 T01191065  RH  027%=      5-min Rain = 0
KSB1 211640Z 17017KT 12/M06 A2982 RMK A01 T01201064  RH  027%=      5-min Rain = 0
KSB1 211641Z 17016KT 12/M06 A2981 RMK A01 T01201064  RH  027%=      5-min Rain = 0
KSB1 211642Z 17014KT 12/M06 A2982 RMK A01 T01191064  RH  027%=      5-min Rain = 0
KSB1 211643Z 17014KT 12/M06 A2981 RMK A01 T01201064  RH  027%=      5-min Rain = 0
KSB1 211644Z 16012KT 12/M06 A2981 RMK A01 T01201064  RH  027%=      5-min Rain = 0
KSB1 211645Z 16011KT 12/M06 A2982 RMK A01 T01211063  RH  027%=      5-min Rain = 0
KSB1 211646Z 16014KT 13/M06 A2982 RMK A01 T01251061  RH  027%=      5-min Rain = 0
KSB1 211647Z 16014KT 13/M06 A2981 RMK A01 T01271061  RH  026%=      5-min Rain = 0
KSB1 211648Z 16014KT 13/M06 A2981 RMK A01 T01271062  RH  026%=      5-min Rain = 0
KSB1 211649Z 17013KT 13/M06 A2981 RMK A01 T01271062  RH  026%=      5-min Rain = 0
KSB1 211650Z 17012KT 13/M06 A2981 RMK A01 T01271062  RH  026%=      5-min Rain = 0
KSB1 211651Z 16015KT 13/M06 A2981 RMK A01 T01271062  RH  026%=      5-min Rain = 0
KSB1 211652Z 16017KT 13/M06 A2981 RMK A01 T01281062  RH  026%=      5-min Rain = 0
KSB1 211653Z 16016KT 13/M06 A2981 RMK A01 T01291064  RH  026%=      5-min Rain = 0
KSB1 211654Z 16014KT 13/M06 A2981 RMK A01 T01281064  RH  026%=      5-min Rain = 0
KSB1 211655Z 16016KT 13/M06 A2981 RMK A01 T01291063  RH  026%=      5-min Rain = 0
KSB1 211656Z 16017KT 13/M06 A2981 RMK A01 T01301062  RH  026%=      5-min Rain = 0
KSB1 211657Z 16016KT 13/M06 A2981 RMK A01 T01301062  RH  026%=      5-min Rain = 0
KSB1 211658Z 16013KT 13/M06 A2981 RMK A01 T01311061  RH  026%=      5-min Rain = 0
KSB1 211659Z 15014KT 13/M06 A2981 RMK A01 T01321061  RH  026%=      5-min Rain = 0
KSB1 211700Z 16015KT 13/M06 A2981 RMK A01 T01311062  RH  026%=      5-min Rain = 0
KSB1 211701Z 17012KT 13/M06 A2981 RMK A01 T01321061  RH  026%=      5-min Rain = 0
KSB1 211702Z 16013KT 14/M06 A2981 RMK A01 T01351058  RH  026%=      5-min Rain = 0
KSB1 211703Z 17015KT 14/M06 A2981 RMK A01 T01371059  RH  025%=      5-min Rain = 0
KSB1 211704Z 17013KT 13/M06 A2981 RMK A01 T01331062  RH  025%=      5-min Rain = 0
KSB1 211705Z 16013KT 13/M06 A2981 RMK A01 T01321060  RH  026%=      5-min Rain = 0
KSB1 211706Z 16014KT 13/M06 A2981 RMK A01 T01321059  RH  026%=      5-min Rain = 0
KSB1 211707Z 16016KT 13/M06 A2981 RMK A01 T01331059  RH  026%=      5-min Rain = 0
KSB1 211708Z 15011KT 14/M06 A2981 RMK A01 T01351059  RH  026%=      5-min Rain = 0
KSB1 211709Z 17012KT 14/M06 A2981 RMK A01 T01381057  RH  025%=      5-min Rain = 0
KSB1 211710Z 18010KT 14/M06 A2981 RMK A01 T01371061  RH  025%=      5-min Rain = 0
KSB1 211711Z 16010KT 14/M06 A2981 RMK A01 T01351060  RH  025%=      5-min Rain = 0
KSB1 211712Z 17012KT 14/M06 A2981 RMK A01 T01361058  RH  025%=      5-min Rain = 0
KSB1 211713Z 16011KT 14/M06 A2981 RMK A01 T01381058  RH  025%=      5-min Rain = 0
KSB1 211714Z 15014KT 14/M06 A2981 RMK A01 T01401058  RH  025%=      5-min Rain = 0
KSB1 211715Z 16013KT 14/M06 A298 RMK A01 T01401059  RH  025%=      5-min Rain = 0
KSB1 211716Z 16011G16KT 14/M06 A2981 RMK A01 T01381059  RH  025%=      5-min Rain = 0
KSB1 211717Z 16017KT 14/M06 A298 RMK A01 T01381059  RH  025%=      5-min Rain = 0
KSB1 211718Z 17013KT 14/M06 A298 RMK A01 T01371059  RH  025%=      5-min Rain = 0
KSB1 211719Z 17013KT 14/M06 A298 RMK A01 T01371058  RH  025%=      5-min Rain = 0
KSB1 211720Z 18011KT 14/M06 A298 RMK A01 T01391057  RH  025%=      5-min Rain = 0
KSB1 211721Z 18008KT 14/M06 A298 RMK A01 T01381058  RH  025%=      5-min Rain = 0
KSB1 211722Z 16012KT 14/M06 A298 RMK A01 T01401056  RH  025%=      5-min Rain = 0
KSB1 211723Z 17013KT 14/M05 A298 RMK A01 T01431054  RH  025%=      5-min Rain = 0
KSB1 211724Z 17014KT 14/M06 A298 RMK A01 T01441055  RH  025%=      5-min Rain = 0
KSB1 211725Z 17015KT 14/M06 A298 RMK A01 T01431056  RH  025%=      5-min Rain = 0
KSB1 211726Z 17013KT 14/M06 A298 RMK A01 T01411056  RH  025%=      5-min Rain = 0
KSB1 211727Z 17012G17KT 14/M06 A298 RMK A01 T01421055  RH  025%=      5-min Rain = 0
KSB1 211728Z 18014KT 14/M05 A298 RMK A01 T01441054  RH  025%=      5-min Rain = 0
KSB1 211729Z 17010KT 14/M06 A298 RMK A01 T01441055  RH  025%=      5-min Rain = 0
KSB1 211730Z 16012G17KT 14/M06 A298 RMK A01 T01421057  RH  025%=      5-min Rain = 0
KSB1 211731Z 15012G17KT 14/M06 A298 RMK A01 T01421056  RH  025%=      5-min Rain = 0
KSB1 211732Z 16012KT 14/M06 A298 RMK A01 T01431056  RH  025%=      5-min Rain = 0
KSB1 211733Z 16013KT 14/M06 A298 RMK A01 T01441055  RH  025%=      5-min Rain = 0
KSB1 211734Z 16014KT 15/M05 A298 RMK A01 T01451054  RH  025%=      5-min Rain = 0
KSB1 211735Z 17013KT 15/M05 A298 RMK A01 T01461054  RH  025%=      5-min Rain = 0
KSB1 211736Z 16013KT 15/M05 A298 RMK A01 T01501052  RH  024%=      5-min Rain = 0
KSB1 211737Z 17016KT 15/M05 A298 RMK A01 T01521052  RH  024%=      5-min Rain = 0
KSB1 211738Z 19015KT 15/M05 A298 RMK A01 T01511054  RH  024%=      5-min Rain = 0
KSB1 211739Z 19013KT 15/M05 A2979 RMK A01 T01471054  RH  024%=      5-min Rain = 0
KSB1 211740Z 18013KT 15/M05 A2979 RMK A01 T01451053  RH  025%=      5-min Rain = 0
KSB1 211741Z 19013KT 15/M05 A2979 RMK A01 T01471051  RH  025%=      5-min Rain = 0
KSB1 211742Z 19013KT 15/M05 A2979 RMK A01 T01491052  RH  025%=      5-min Rain = 0
KSB1 211743Z 16011KT 15/M05 A2979 RMK A01 T01491052  RH  025%=      5-min Rain = 0
KSB1 211744Z 17011KT 15/M05 A2979 RMK A01 T01501053  RH  024%=      5-min Rain = 0
KSB1 211745Z 19012KT 15/M05 A2979 RMK A01 T01521053  RH  024%=      5-min Rain = 0
KSB1 211746Z 18016KT 15/M05 A2979 RMK A01 T01521053  RH  024%=      5-min Rain = 0
KSB1 211747Z 19012KT 15/M06 A2979 RMK A01 T01491055  RH  024%=      5-min Rain = 0
KSB1 211748Z 19012KT 15/M05 A2979 RMK A01 T01461054  RH  025%=      5-min Rain = 0
KSB1 211749Z 17011KT 15/M05 A2979 RMK A01 T01451053  RH  025%=      5-min Rain = 0
KSB1 211750Z 17013KT 15/M05 A2979 RMK A01 T01471051  RH  025%=      5-min Rain = 0
KSB1 211751Z 18016KT 15/M05 A2979 RMK A01 T01521051  RH  024%=      5-min Rain = 0
KSB1 211752Z 17013KT 15/M05 A2979 RMK A01 T01521052  RH  024%=      5-min Rain = 0
KSB1 211753Z 18012KT 15/M05 A2979 RMK A01 T01531053  RH  024%=      5-min Rain = 0
KSB1 211754Z 18014KT 15/M05 A2979 RMK A01 T01531053  RH  024%=      5-min Rain = 0
KSB1 211755Z 16016G21KT 15/M05 A2979 RMK A01 T01531053  RH  024%=      5-min Rain = 0
KSB1 211756Z 17018KT 15/M05 A2979 RMK A01 T01531054  RH  024%=      5-min Rain = 0
KSB1 211757Z 18016KT 15/M05 A2979 RMK A01 T01531054  RH  024%=      5-min Rain = 0
KSB1 211758Z 18014KT 15/M06 A2979 RMK A01 T01511055  RH  024%=      5-min Rain = 0
KSB1 211759Z 19012KT 15/M05 A2979 RMK A01 T01501054  RH  024%=      5-min Rain = 0
KSB1 211800Z 17011KT 15/M05 A2979 RMK A01 T01521053  RH  024%=      5-min Rain = 0
KSB1 211801Z 16014KT 15/M05 A2979 RMK A01 T01541052  RH  024%=      5-min Rain = 0
KSB1 211802Z 17017KT 16/M05 A2979 RMK A01 T01581050  RH  024%=      5-min Rain = 0
KSB1 211803Z 17015KT 16/M05 A2979 RMK A01 T01551053  RH  023%=      5-min Rain = 0
KSB1 211804Z 17014KT 15/M05 A2979 RMK A01 T01541052  RH  024%=      5-min Rain = 0
KSB1 211805Z 17017KT 15/M05 A2979 RMK A01 T01541051  RH  024%=      5-min Rain = 0
KSB1 211806Z 18015KT 16/M05 A2979 RMK A01 T01551051  RH  024%=      5-min Rain = 0
KSB1 211807Z 18016KT 16/M05 A2979 RMK A01 T01561052  RH  024%=      5-min Rain = 0
KSB1 211808Z 18014KT 15/M05 A2979 RMK A01 T01541053  RH  024%=      5-min Rain = 0
KSB1 211809Z 18011KT 15/M05 A2979 RMK A01 T01531051  RH  024%=      5-min Rain = 0
KSB1 211810Z 17011KT 16/M05 A2979 RMK A01 T01551050  RH  024%=      5-min Rain = 0
KSB1 211811Z 17012G17KT 16/M05 A2979 RMK A01 T01571048  RH  024%=      5-min Rain = 0
KSB1 211812Z 19011KT 16/M05 A2979 RMK A01 T01581050  RH  024%=      5-min Rain = 0
KSB1 211813Z 18013KT 16/M05 A2979 RMK A01 T01601049  RH  023%=      5-min Rain = 0
KSB1 211814Z 18011KT 16/M05 A2978 RMK A01 T01601050  RH  023%=      5-min Rain = 0
KSB1 211815Z 18013KT 16/M05 A2978 RMK A01 T01591050  RH  023%=      5-min Rain = 0
KSB1 211816Z 20012KT 16/M05 A2979 RMK A01 T01591052  RH  023%=      5-min Rain = 0
KSB1 211817Z 20008KT 16/M05 A2979 RMK A01 T01561054  RH  023%=      5-min Rain = 0
KSB1 211818Z 20010G15KT 16/M05 A2979 RMK A01 T01581050  RH  023%=      5-min Rain = 0
KSB1 211819Z 21011KT 16/M05 A2978 RMK A01 T01601051  RH  023%=      5-min Rain = 0
KSB1 211820Z 20013KT 16/M05 A2978 RMK A01 T01601052  RH  023%=      5-min Rain = 0
KSB1 211821Z 20014KT 16/M06 A2978 RMK A01 T01571055  RH  023%=      5-min Rain = 0
KSB1 211822Z 21015KT 16/M05 A2978 RMK A01 T01551054  RH  023%=      5-min Rain = 0
KSB1 211823Z 19013KT 16/M06 A2978 RMK A01 T01561057  RH  023%=      5-min Rain = 0
KSB1 211824Z 19017G23KT 16/M06 A2978 RMK A01 T01571060  RH  022%=      5-min Rain = 0
KSB1 211825Z 21012G18KT 16/M06 A2978 RMK A01 T01561064  RH  021%=      5-min Rain = 0
KSB1 211826Z 22012KT 16/M06 A2978 RMK A01 T01581062  RH  021%=      5-min Rain = 0
KSB1 211827Z 20021G31KT 16/M06 A2977 RMK A01 T01611060  RH  021%=      5-min Rain = 0
KSB1 211828Z 17017KT 16/M06 A2978 RMK A01 T01631057  RH  022%=      5-min Rain = 0
KSB1 211829Z 17013KT 16/M06 A2978 RMK A01 T01601056  RH  022%=      5-min Rain = 0
KSB1 211830Z 18011KT 16/M05 A2978 RMK A01 T01601054  RH  022%=      5-min Rain = 0
KSB1 211831Z 20015G20KT 16/M05 A2978 RMK A01 T01641053  RH  022%=      5-min Rain = 0
KSB1 211832Z 21016KT 17/M06 A2978 RMK A01 T01661058  RH  021%=      5-min Rain = 0
KSB1 211833Z 19014KT 16/M06 A2978 RMK A01 T01631062  RH  021%=      5-min Rain = 0
KSB1 211834Z 18013G18KT 16/M06 A2978 RMK A01 T01621057  RH  022%=      5-min Rain = 0
KSB1 211835Z 19014G19KT 16/M06 A2977 RMK A01 T01611058  RH  022%=      5-min Rain = 0
KSB1 211836Z 18014KT 17/M06 A2977 RMK A01 T01651056  RH  021%=      5-min Rain = 0
KSB1 211837Z 21016KT 17/M06 A2977 RMK A01 T01681057  RH  021%=      5-min Rain = 0
KSB1 211838Z 20022G30KT 17/M06 A2977 RMK A01 T01651063  RH  020%=      5-min Rain = 0
KSB1 211839Z 22016KT 17/M06 A2977 RMK A01 T01651063  RH  020%=      5-min Rain = 0
KSB1 211840Z 23016G21KT 16/M07 A2977 RMK A01 T01641065  RH  020%=      5-min Rain = 0
KSB1 211841Z 23016KT 16/M07 A2977 RMK A01 T01631065  RH  020%=      5-min Rain = 0
KSB1 211842Z 23014KT 16/M07 A2977 RMK A01 T01621065  RH  020%=      5-min Rain = 0
KSB1 211843Z 20012G17KT 17/M06 A2977 RMK A01 T01651062  RH  021%=      5-min Rain = 0
KSB1 211844Z 21014KT 17/M06 A2977 RMK A01 T01741056  RH  020%=      5-min Rain = 0
KSB1 211845Z 20019G25KT 18/M06 A2977 RMK A01 T01761059  RH  020%=      5-min Rain = 0
KSB1 211846Z 20022KT 17/M07 A2976 RMK A01 T01711065  RH  019%=      5-min Rain = 0
KSB1 211847Z 19019KT 17/M07 A2976 RMK A01 T01681066  RH  020%=      5-min Rain = 0
KSB1 211848Z 22015KT 17/M07 A2977 RMK A01 T01671065  RH  020%=      5-min Rain = 0
KSB1 211849Z 21016KT 17/M07 A2977 RMK A01 T01661066  RH  020%=      5-min Rain = 0
KSB1 211850Z 20023G30KT 17/M07 A2976 RMK A01 T01671065  RH  020%=      5-min Rain = 0
KSB1 211851Z 20021KT 17/M07 A2976 RMK A01 T01681066  RH  020%=      5-min Rain = 0
KSB1 211852Z 21024G30KT 17/M07 A2976 RMK A01 T01691065  RH  019%=      5-min Rain = 0
KSB1 211853Z 21023KT 17/M07 A2976 RMK A01 T01681067  RH  019%=      5-min Rain = 0
KSB1 211854Z 21021G26KT 17/M07 A2976 RMK A01 T01671066  RH  020%=      5-min Rain = 0
KSB1 211855Z 20019G24KT 17/M07 A2976 RMK A01 T01671066  RH  020%=      5-min Rain = 0
KSB1 211856Z 20016G21KT 17/M07 A2977 RMK A01 T01651065  RH  020%=      5-min Rain = 0
KSB1 211857Z 19016G24KT 16/M07 A2976 RMK A01 T01641065  RH  020%=      5-min Rain = 0
KSB1 211858Z 20022KT 17/M06 A2976 RMK A01 T01681063  RH  020%=      5-min Rain = 0
KSB1 211859Z 20019G26KT 17/M06 A2976 RMK A01 T01691063  RH  020%=      5-min Rain = 0
KSB1 211900Z 20019KT 17/M06 A2976 RMK A01 T01701064  RH  020%=      5-min Rain = 0
KSB1 211901Z 20020G25KT 17/M07 A2976 RMK A01 T01701065  RH  020%=      5-min Rain = 0
KSB1 211902Z 19015KT 17/M07 A2976 RMK A01 T01671065  RH  020%=      5-min Rain = 0
KSB1 211903Z 21018G25KT 16/M06 A2976 RMK A01 T01641063  RH  020%=      5-min Rain = 0
KSB1 211904Z 21020KT 17/M06 A2976 RMK A01 T01661064  RH  020%=      5-min Rain = 0
KSB1 211905Z 21017KT 17/M07 A2976 RMK A01 T01661065  RH  020%=      5-min Rain = 0
KSB1 211906Z 21014KT 16/M07 A2976 RMK A01 T01641065  RH  020%=      5-min Rain = 0
KSB1 211907Z 23016G22KT 16/M06 A2976 RMK A01 T01641064  RH  020%=      5-min Rain = 0
KSB1 211908Z 19021KT 17/M07 A2975 RMK A01 T01661065  RH  020%=      5-min Rain = 0
KSB1 211909Z 21025G32KT 17/M06 A2975 RMK A01 T01681064  RH  020%=      5-min Rain = 0
KSB1 211910Z 22022KT 17/M07 A2975 RMK A01 T01681065  RH  020%=      5-min Rain = 0
KSB1 211911Z 21019G24KT 17/M07 A2976 RMK A01 T01691066  RH  019%=      5-min Rain = 0
KSB1 211912Z 20022KT 17/M06 A2975 RMK A01 T01711064  RH  020%=      5-min Rain = 0
KSB1 211913Z 21019KT 17/M07 A2976 RMK A01 T01691065  RH  020%=      5-min Rain = 0
KSB1 211914Z 21021G28KT 17/M06 A2975 RMK A01 T01701064  RH  020%=      5-min Rain = 0
KSB1 211915Z 21020KT 17/M06 A2975 RMK A01 T01681064  RH  020%=      5-min Rain = 0
KSB1 211916Z 23016KT 17/M06 A2976 RMK A01 T01701062  RH  020%=      5-min Rain = 0
KSB1 211917Z 23018KT 17/M06 A2976 RMK A01 T01721062  RH  020%=      5-min Rain = 0
KSB1 211918Z 22015G20KT 17/M06 A2976 RMK A01 T01731061  RH  020%=      5-min Rain = 0
KSB1 211919Z 19013KT 17/M06 A2976 RMK A01 T01741063  RH  019%=      5-min Rain = 0
KSB1 211920Z 20014G19KT 17/M06 A2976 RMK A01 T01721064  RH  019%=      5-min Rain = 0
KSB1 211921Z 18013KT 17/M06 A2976 RMK A01 T01731063  RH  019%=      5-min Rain = 0
KSB1 211922Z 20012G20KT 17/M06 A2976 RMK A01 T01731064  RH  019%=      5-min Rain = 0
KSB1 211923Z 23018G23KT 17/M06 A2975 RMK A01 T01711064  RH  019%=      5-min Rain = 0
KSB1 211924Z 21018KT 17/M06 A2975 RMK A01 T01701063  RH  020%=      5-min Rain = 0
KSB1 211925Z 20014KT 17/M06 A2975 RMK A01 T01691064  RH  020%=      5-min Rain = 0
KSB1 211926Z 21014KT 17/M06 A2975 RMK A01 T01701061  RH  020%=      5-min Rain = 0
KSB1 211927Z 22017KT 18/M06 A2975 RMK A01 T01751060  RH  020%=      5-min Rain = 0
KSB1 211928Z 21015KT 17/M06 A2975 RMK A01 T01721063  RH  019%=      5-min Rain = 0
KSB1 211929Z 22014KT 17/M06 A2975 RMK A01 T01721061  RH  020%=      5-min Rain = 0
KSB1 211930Z 20013KT 17/M06 A2975 RMK A01 T01741060  RH  020%=      5-min Rain = 0
KSB1 211931Z 20016KT 18/M06 A2975 RMK A01 T01751060  RH  020%=      5-min Rain = 0
KSB1 211932Z 21018G23KT 18/M06 A2975 RMK A01 T01781059  RH  019%=      5-min Rain = 0
KSB1 211933Z 21024KT 18/M06 A2974 RMK A01 T01781061  RH  019%=      5-min Rain = 0
KSB1 211934Z 21020G26KT 18/M06 A2975 RMK A01 T01751064  RH  019%=      5-min Rain = 0
KSB1 211935Z 21015KT 18/M06 A2975 RMK A01 T01751062  RH  019%=      5-min Rain = 0
KSB1 211936Z 21014KT 18/M06 A2975 RMK A01 T01771062  RH  019%=      5-min Rain = 0
KSB1 211937Z 21015KT 18/M06 A2975 RMK A01 T01761062  RH  019%=      5-min Rain = 0
KSB1 211938Z 18015G21KT 18/M06 A2975 RMK A01 T01761062  RH  019%=      5-min Rain = 0
KSB1 211939Z 19015KT 18/M06 A2975 RMK A01 T01761063  RH  019%=      5-min Rain = 0
KSB1 211940Z 19019G24KT 18/M06 A2975 RMK A01 T01751063  RH  019%=      5-min Rain = 0
KSB1 211941Z 20022KT 18/M06 A2974 RMK A01 T01751063  RH  019%=      5-min Rain = 0
KSB1 211942Z 20020G27KT 18/M06 A2974 RMK A01 T01751064  RH  019%=      5-min Rain = 0
KSB1 211943Z 19019KT 17/M06 A2974 RMK A01 T01741063  RH  019%=      5-min Rain = 0
KSB1 211944Z 19018KT 17/M06 A2974 RMK A01 T01731064  RH  019%=      5-min Rain = 0
KSB1 211945Z 18018KT 17/M06 A2974 RMK A01 T01731063  RH  019%=      5-min Rain = 0
KSB1 211946Z 19017KT 17/M06 A2974 RMK A01 T01741061  RH  019%=      5-min Rain = 0
KSB1 211947Z 20014KT 18/M06 A2974 RMK A01 T01771061  RH  019%=      5-min Rain = 0
KSB1 211948Z 21016KT 18/M06 A2974 RMK A01 T01801060  RH  019%=      5-min Rain = 0
KSB1 211949Z 19017KT 18/M06 A2974 RMK A01 T01791061  RH  019%=      5-min Rain = 0
KSB1 211950Z 19016G25KT 18/M06 A2974 RMK A01 T01791063  RH  019%=      5-min Rain = 0
KSB1 211951Z 19022KT 18/M06 A2974 RMK A01 T01781062  RH  019%=      5-min Rain = 0
KSB1 211952Z 20019KT 18/M06 A2974 RMK A01 T01761064  RH  019%=      5-min Rain = 0
KSB1 211953Z 21017G22KT 17/M06 A2974 RMK A01 T01741063  RH  019%=      5-min Rain = 0
KSB1 211954Z 21022KT 18/M06 A2973 RMK A01 T01771060  RH  019%=      5-min Rain = 0
KSB1 211955Z 19018KT 18/M06 A2974 RMK A01 T01771061  RH  019%=      5-min Rain = 0
KSB1 211956Z 19017KT 18/M06 A2974 RMK A01 T01761061  RH  019%=      5-min Rain = 0
KSB1 211957Z 19013G18KT 18/M06 A2974 RMK A01 T01761062  RH  019%=      5-min Rain = 0
KSB1 211958Z 18011KT 17/M06 A2974 RMK A01 T01721062  RH  020%=      5-min Rain = 0
KSB1 211959Z 17013KT 17/M06 A2974 RMK A01 T01741060  RH  020%=      5-min Rain = 0
KSB1 212000Z 18011KT 17/M06 A2974 RMK A01 T01721062  RH  020%=      5-min Rain = 0
KSB1 212001Z 18014KT 17/M06 A2973 RMK A01 T01741061  RH  020%=      5-min Rain = 0
KSB1 212002Z 20011KT 17/M06 A2974 RMK A01 T01731062  RH  019%=      5-min Rain = 0
KSB1 212003Z 21010KT 18/M06 A2974 RMK A01 T01771058  RH  020%=      5-min Rain = 0
KSB1 212004Z 20010KT 18/M06 A2974 RMK A01 T01791060  RH  019%=      5-min Rain = 0
KSB1 212005Z 22015KT 18/M06 A2973 RMK A01 T01771062  RH  019%=      5-min Rain = 0
KSB1 212006Z 22015KT 18/M06 A2973 RMK A01 T01761061  RH  019%=      5-min Rain = 0
KSB1 212007Z 22015KT 18/M06 A2973 RMK A01 T01771059  RH  019%=      5-min Rain = 0
KSB1 212008Z 23015KT 18/M06 A2973 RMK A01 T01791060  RH  019%=      5-min Rain = 0
KSB1 212009Z 23014G19KT 18/M06 A2973 RMK A01 T01791061  RH  019%=      5-min Rain = 0
KSB1 212010Z 21018G23KT 18/M06 A2973 RMK A01 T01771062  RH  019%=      5-min Rain = 0
KSB1 212011Z 21018KT 17/M07 A2973 RMK A01 T01731065  RH  019%=      5-min Rain = 0
KSB1 212012Z 19017G22KT 17/M06 A2972 RMK A01 T01721064  RH  019%=      5-min Rain = 0
KSB1 212013Z 19015KT 17/M06 A2973 RMK A01 T01721064  RH  019%=      5-min Rain = 0
KSB1 212014Z 19013KT 17/M06 A2973 RMK A01 T01721064  RH  019%=      5-min Rain = 0
KSB1 212015Z 18016G23KT 17/M06 A2973 RMK A01 T01741062  RH  019%=      5-min Rain = 0
KSB1 212016Z 18016KT 18/M06 A2972 RMK A01 T01761062  RH  019%=      5-min Rain = 0
KSB1 212017Z 18016KT 18/M06 A2972 RMK A01 T01791061  RH  019%=      5-min Rain = 0
KSB1 212018Z 19014KT 18/M06 A2972 RMK A01 T01791064  RH  019%=      5-min Rain = 0
KSB1 212019Z 21014KT 18/M06 A2972 RMK A01 T01781063  RH  019%=      5-min Rain = 0
KSB1 212020Z 20014KT 18/M06 A2972 RMK A01 T01781062  RH  019%=      5-min Rain = 0
KSB1 212021Z 20010KT 18/M06 A2972 RMK A01 T01791062  RH  019%=      5-min Rain = 0
KSB1 212022Z 21015G20KT 18/M06 A2972 RMK A01 T01811062  RH  019%=      5-min Rain = 0
KSB1 212023Z 21018KT 18/M06 A2972 RMK A01 T01821063  RH  018%=      5-min Rain = 0
KSB1 212024Z 21018KT 18/M07 A2972 RMK A01 T01841065  RH  018%=      5-min Rain = 0
KSB1 212025Z 22017KT 18/M07 A2972 RMK A01 T01821068  RH  018%=      5-min Rain = 0
KSB1 212026Z 22021KT 18/M07 A2971 RMK A01 T01811069  RH  018%=      5-min Rain = 0
KSB1 212027Z 22013KT 18/M07 A2972 RMK A01 T01781074  RH  017%=      5-min Rain = 0
KSB1 212028Z 22017KT 18/M07 A2971 RMK A01 T01791069  RH  018%=      5-min Rain = 0
KSB1 212029Z 22017KT 18/M07 A2971 RMK A01 T01821068  RH  018%=      5-min Rain = 0
KSB1 212030Z 23016KT 18/M07 A2971 RMK A01 T01841066  RH  018%=      5-min Rain = 0
KSB1 212031Z 22016KT 19/M07 A2971 RMK A01 T01851067  RH  017%=      5-min Rain = 0
KSB1 212032Z 23012KT 18/M07 A2972 RMK A01 T01821068  RH  018%=      5-min Rain = 0
KSB1 212033Z 21013KT 18/M07 A2972 RMK A01 T01841065  RH  018%=      5-min Rain = 0
KSB1 212034Z 20012KT 19/M07 A2971 RMK A01 T01851067  RH  017%=      5-min Rain = 0
KSB1 212035Z 21012KT 19/M07 A2971 RMK A01 T01851066  RH  017%=      5-min Rain = 0
KSB1 212036Z 22016KT 19/M07 A2971 RMK A01 T01871066  RH  017%=      5-min Rain = 0
KSB1 212037Z 22018KT 19/M07 A2971 RMK A01 T01861068  RH  017%=      5-min Rain = 0
KSB1 212038Z 21022G30KT 19/M07 A2971 RMK A01 T01861067  RH  017%=      5-min Rain = 0
KSB1 212039Z 20022G27KT 19/M07 A2971 RMK A01 T01861069  RH  017%=      5-min Rain = 0
KSB1 212040Z 20020G26KT 19/M07 A2971 RMK A01 T01851070  RH  017%=      5-min Rain = 0
KSB1 212041Z 20021KT 19/M07 A2971 RMK A01 T01861071  RH  017%=      5-min Rain = 0
KSB1 212042Z 20021KT 18/M07 A2971 RMK A01 T01831073  RH  017%=      5-min Rain = 0
KSB1 212043Z 20019KT 18/M07 A2971 RMK A01 T01801073  RH  017%=      5-min Rain = 0
KSB1 212044Z 19019KT 18/M07 A2971 RMK A01 T01791070  RH  018%=      5-min Rain = 0
KSB1 212045Z 19020KT 18/M07 A297 RMK A01 T01811068  RH  018%=      5-min Rain = 0
KSB1 212046Z 21017KT 18/M07 A297 RMK A01 T01821068  RH  018%=      5-min Rain = 0
KSB1 212047Z 22020G25KT 19/M07 A297 RMK A01 T01851065  RH  018%=      5-min Rain = 0
KSB1 212048Z 22021KT 19/M07 A297 RMK A01 T01861066  RH  017%=      5-min Rain = 0
KSB1 212049Z 22015G21KT 18/M07 A297 RMK A01 T01821068  RH  018%=      5-min Rain = 0
KSB1 212050Z 21013KT 18/M07 A2971 RMK A01 T01821066  RH  018%=      5-min Rain = 0
KSB1 212051Z 21018KT 19/M07 A297 RMK A01 T01851065  RH  018%=      5-min Rain = 0
KSB1 212052Z 21015KT 18/M07 A2971 RMK A01 T01831067  RH  018%=      5-min Rain = 0
KSB1 212053Z 21014KT 18/M07 A2971 RMK A01 T01821067  RH  018%=      5-min Rain = 0
KSB1 212054Z 20017G24KT 18/M07 A297 RMK A01 T01831066  RH  018%=      5-min Rain = 0
KSB1 212055Z 20019KT 18/M07 A297 RMK A01 T01841065  RH  018%=      5-min Rain = 0
KSB1 212056Z 20016KT 19/M06 A297 RMK A01 T01851064  RH  018%=      5-min Rain = 0
KSB1 212057Z 20014KT 18/M07 A297 RMK A01 T01841065  RH  018%=      5-min Rain = 0
KSB1 212058Z 20022KT 18/M07 A297 RMK A01 T01831067  RH  018%=      5-min Rain = 0
KSB1 212059Z 19019KT 18/M07 A297 RMK A01 T01841072  RH  017%=      5-min Rain = 0
KSB1 212100Z 20018KT 19/M07 A297 RMK A01 T01851071  RH  017%=      5-min Rain = 0
KSB1 212101Z 20015KT 19/M07 A297 RMK A01 T01871070  RH  017%=      5-min Rain = 0
KSB1 212102Z 21014KT 19/M07 A297 RMK A01 T01881071  RH  017%=      5-min Rain = 0
KSB1 212103Z 21015KT 18/M08 A297 RMK A01 T01841075  RH  016%=      5-min Rain = 0
KSB1 212104Z 19017KT 18/M08 A297 RMK A01 T01841076  RH  016%=      5-min Rain = 0
KSB1 212105Z 19014G19KT 19/M07 A297 RMK A01 T01861073  RH  016%=      5-min Rain = 0
KSB1 212106Z 19010KT 18/M07 A297 RMK A01 T01831074  RH  017%=      5-min Rain = 0
KSB1 212107Z 19012KT 18/M07 A297 RMK A01 T01831073  RH  017%=      5-min Rain = 0
KSB1 212108Z 19011KT 18/M07 A297 RMK A01 T01831073  RH  017%=      5-min Rain = 0
KSB1 212109Z 19015KT 19/M07 A297 RMK A01 T01871069  RH  017%=      5-min Rain = 0
KSB1 212110Z 19018KT 19/M07 A297 RMK A01 T01911069  RH  017%=      5-min Rain = 0
KSB1 212111Z 19021KT 19/M07 A2969 RMK A01 T01911065  RH  017%=      5-min Rain = 0
KSB1 212112Z 19017G22KT 19/M07 A297 RMK A01 T01911065  RH  017%=      5-min Rain = 0
KSB1 212113Z 20016KT 19/M07 A297 RMK A01 T01901065  RH  017%=      5-min Rain = 0
KSB1 212114Z 19014G19KT 19/M07 A297 RMK A01 T01901065  RH  017%=      5-min Rain = 0
KSB1 212115Z 17019G27KT 19/M07 A297 RMK A01 T01881068  RH  017%=      5-min Rain = 0
KSB1 212116Z 18025KT 19/M07 A2969 RMK A01 T01871072  RH  017%=      5-min Rain = 0
KSB1 212117Z 19019G24KT 19/M07 A2969 RMK A01 T01851073  RH  017%=      5-min Rain = 0
KSB1 212118Z 18021KT 19/M07 A2969 RMK A01 T01891068  RH  017%=      5-min Rain = 0
KSB1 212119Z 19024G29KT 19/M07 A2969 RMK A01 T01891072  RH  016%=      5-min Rain = 0
KSB1 212120Z 18022G28KT 19/M08 A2969 RMK A01 T01891079  RH  015%=      5-min Rain = 0
KSB1 212121Z 19015KT 19/M08 A2969 RMK A01 T01881080  RH  015%=      5-min Rain = 0
KSB1 212122Z 19017KT 19/M08 A2969 RMK A01 T01911077  RH  015%=      5-min Rain = 0
KSB1 212123Z 18021KT 19/M07 A2969 RMK A01 T01931070  RH  016%=      5-min Rain = 0
KSB1 212124Z 18016G23KT 19/M07 A2969 RMK A01 T01891072  RH  016%=      5-min Rain = 0
KSB1 212125Z 18014KT 19/M07 A2969 RMK A01 T01871072  RH  017%=      5-min Rain = 0
KSB1 212126Z 18017KT 19/M07 A2969 RMK A01 T01881070  RH  017%=      5-min Rain = 0
KSB1 212127Z 18017G22KT 19/M07 A2969 RMK A01 T01891071  RH  016%=      5-min Rain = 0
KSB1 212128Z 19018KT 19/M07 A2969 RMK A01 T01891073  RH  016%=      5-min Rain = 0
KSB1 212129Z 18014KT 19/M07 A2969 RMK A01 T01881072  RH  017%=      5-min Rain = 0
KSB1 212130Z 18019KT 19/M07 A2969 RMK A01 T01891071  RH  017%=      5-min Rain = 0
KSB1 212131Z 19020KT 19/M08 A2969 RMK A01 T01861076  RH  016%=      5-min Rain = 0
KSB1 212132Z 20014KT 18/M08 A2969 RMK A01 T01821077  RH  016%=      5-min Rain = 0
KSB1 212133Z 19014KT 18/M08 A2969 RMK A01 T01821077  RH  016%=      5-min Rain = 0
KSB1 212134Z 19018KT 19/M08 A2969 RMK A01 T01851078  RH  016%=      5-min Rain = 0
KSB1 212135Z 18017KT 19/M08 A2969 RMK A01 T01891080  RH  015%=      5-min Rain = 0
KSB1 212136Z 19018KT 19/M08 A2969 RMK A01 T01911081  RH  015%=      5-min Rain = 0
KSB1 212137Z 20019KT 19/M08 A2969 RMK A01 T01911082  RH  015%=      5-min Rain = 0
KSB1 212138Z 20016KT 19/M08 A2969 RMK A01 T01901084  RH  015%=      5-min Rain = 0
KSB1 212139Z 21014KT 19/M08 A2969 RMK A01 T01901083  RH  015%=      5-min Rain = 0
KSB1 212140Z 20011KT 19/M08 A2969 RMK A01 T01901081  RH  015%=      5-min Rain = 0
KSB1 212141Z 22013KT 19/M08 A2969 RMK A01 T01931078  RH  015%=      5-min Rain = 0
KSB1 212142Z 22014G19KT 19/M08 A2969 RMK A01 T01941083  RH  015%=      5-min Rain = 0
KSB1 212143Z 21012KT 20/M08 A2969 RMK A01 T01951081  RH  015%=      5-min Rain = 0
KSB1 212144Z 19017G22KT 20/M08 A2969 RMK A01 T01981082  RH  014%=      5-min Rain = 0
KSB1 212145Z 19018KT 19/M08 A2969 RMK A01 T01941084  RH  014%=      5-min Rain = 0
KSB1 212146Z 19018KT 19/M08 A2969 RMK A01 T01911083  RH  015%=      5-min Rain = 0
KSB1 212147Z 21015G20KT 19/M08 A2969 RMK A01 T01901083  RH  015%=      5-min Rain = 0
KSB1 212148Z 23018G23KT 19/M09 A2969 RMK A01 T01931086  RH  014%=      5-min Rain = 0
KSB1 212149Z 22021KT 20/M10 A2968 RMK A01 T01971095  RH  013%=      5-min Rain = 0
KSB1 212150Z 21019KT 20/M11 A2969 RMK A01 T01951105  RH  012%=      5-min Rain = 0
KSB1 212151Z 21017KT 19/M11 A2969 RMK A01 T01941107  RH  012%=      5-min Rain = 0
KSB1 212152Z 23017G22KT 19/M11 A2969 RMK A01 T01931107  RH  012%=      5-min Rain = 0
KSB1 212153Z 23018G24KT 19/M11 A2969 RMK A01 T01941107  RH  012%=      5-min Rain = 0
KSB1 212154Z 22019KT 19/M11 A2969 RMK A01 T01941108  RH  012%=      5-min Rain = 0
KSB1 212155Z 23021G26KT 19/M11 A2968 RMK A01 T01921110  RH  012%=      5-min Rain = 0
KSB1 212156Z 23021G26KT 19/M11 A2968 RMK A01 T01891109  RH  012%=      5-min Rain = 0
KSB1 212157Z 22018G23KT 19/M11 A2968 RMK A01 T01871110  RH  012%=      5-min Rain = 0
KSB1 212158Z 21020G26KT 19/M11 A2968 RMK A01 T01871109  RH  012%=      5-min Rain = 0
KSB1 212159Z 22020KT 19/M11 A2968 RMK A01 T01911109  RH  012%=      5-min Rain = 0
KSB1 212200Z 22020G25KT 19/M11 A2968 RMK A01 T01931110  RH  012%=      5-min Rain = 0
KSB1 212201Z 22017KT 19/M11 A2968 RMK A01 T01941111  RH  012%=      5-min Rain = 0
KSB1 212202Z 23018KT 20/M11 A2968 RMK A01 T01951111  RH  012%=      5-min Rain = 0
KSB1 212203Z 22021G26KT 20/M11 A2968 RMK A01 T01971110  RH  012%=      5-min Rain = 0
KSB1 212204Z 22018G26KT 20/M11 A2968 RMK A01 T01971113  RH  011%=      5-min Rain = 0
KSB1 212205Z 22024G31KT 20/M11 A2967 RMK A01 T01971113  RH  011%=      5-min Rain = 0
KSB1 212206Z 21021G27KT 20/M11 A2968 RMK A01 T01971112  RH  011%=      5-min Rain = 0
KSB1 212207Z 22024KT 20/M11 A2968 RMK A01 T01971113  RH  011%=      5-min Rain = 0
KSB1 212208Z 21027KT 20/M11 A2967 RMK A01 T01951114  RH  011%=      5-min Rain = 0
KSB1 212209Z 21019G24KT 19/M11 A2968 RMK A01 T01931114  RH  012%=      5-min Rain = 0
KSB1 212210Z 22021KT 19/M11 A2968 RMK A01 T01931113  RH  012%=      5-min Rain = 0
KSB1 212211Z 22020G25KT 19/M11 A2968 RMK A01 T01921113  RH  012%=      5-min Rain = 0
KSB1 212212Z 21017G22KT 19/M11 A2968 RMK A01 T01911113  RH  012%=      5-min Rain = 0
KSB1 212213Z 23019G24KT 19/M11 A2968 RMK A01 T01931111  RH  012%=      5-min Rain = 0
KSB1 212214Z 23022KT 19/M11 A2968 RMK A01 T01941111  RH  012%=      5-min Rain = 0
KSB1 212215Z 23019KT 19/M11 A2968 RMK A01 T01921112  RH  012%=      5-min Rain = 0
KSB1 212216Z 22017KT 19/M11 A2968 RMK A01 T01911112  RH  012%=      5-min Rain = 0
KSB1 212217Z 23013G20KT 19/M11 A2968 RMK A01 T01901112  RH  012%=      5-min Rain = 0
KSB1 212218Z 24017G22KT 19/M11 A2968 RMK A01 T01911110  RH  012%=      5-min Rain = 0
KSB1 212219Z 24016G21KT 19/M11 A2968 RMK A01 T01921110  RH  012%=      5-min Rain = 0
KSB1 212220Z 22016KT 19/M11 A2968 RMK A01 T01921110  RH  012%=      5-min Rain = 0
KSB1 212221Z 22016KT 19/M11 A2968 RMK A01 T01901111  RH  012%=      5-min Rain = 0
KSB1 212222Z 22014KT 19/M11 A2968 RMK A01 T01891111  RH  012%=      5-min Rain = 0
KSB1 212223Z 22017KT 19/M11 A2968 RMK A01 T01891111  RH  012%=      5-min Rain = 0
KSB1 212224Z 23019KT 19/M11 A2968 RMK A01 T01891111  RH  012%=      5-min Rain = 0
KSB1 212225Z 23024G31KT 19/M11 A2968 RMK A01 T01891112  RH  012%=      5-min Rain = 0
KSB1 212226Z 23020G28KT 19/M12 A2968 RMK A01 T01881115  RH  012%=      5-min Rain = 0
KSB1 212227Z 22018KT 19/M11 A2968 RMK A01 T01901113  RH  012%=      5-min Rain = 0
KSB1 212228Z 21020KT 19/M11 A2968 RMK A01 T01911112  RH  012%=      5-min Rain = 0
KSB1 212229Z 22017KT 19/M11 A2968 RMK A01 T01921112  RH  012%=      5-min Rain = 0
KSB1 212230Z 23015G21KT 19/M11 A2968 RMK A01 T01921112  RH  012%=      5-min Rain = 0
KSB1 212231Z 24022KT 19/M11 A2968 RMK A01 T01931110  RH  012%=      5-min Rain = 0
KSB1 212232Z 24021G26KT 19/M11 A2968 RMK A01 T01931111  RH  012%=      5-min Rain = 0
KSB1 212233Z 23025G32KT 19/M11 A2968 RMK A01 T01921114  RH  011%=      5-min Rain = 0
KSB1 212234Z 23020G25KT 19/M11 A2968 RMK A01 T01921114  RH  012%=      5-min Rain = 0
KSB1 212235Z 23019G24KT 19/M11 A2968 RMK A01 T01911113  RH  012%=      5-min Rain = 0
KSB1 212236Z 23014KT 19/M11 A2968 RMK A01 T01911111  RH  012%=      5-min Rain = 0
KSB1 212237Z 23015KT 19/M11 A2969 RMK A01 T01901110  RH  012%=      5-min Rain = 0
KSB1 212238Z 22017KT 19/M11 A2969 RMK A01 T01901110  RH  012%=      5-min Rain = 0
KSB1 212239Z 23014KT 19/M11 A2969 RMK A01 T01881110  RH  012%=      5-min Rain = 0
KSB1 212240Z 23015KT 19/M11 A2969 RMK A01 T01901110  RH  012%=      5-min Rain = 0
KSB1 212241Z 23014KT 19/M11 A2969 RMK A01 T01911110  RH  012%=      5-min Rain = 0
KSB1 212242Z 23013KT 19/M11 A2969 RMK A01 T01921110  RH  012%=      5-min Rain = 0
KSB1 212243Z 22013KT 19/M11 A2969 RMK A01 T01931108  RH  012%=      5-min Rain = 0
KSB1 212244Z 21016KT 19/M11 A2969 RMK A01 T01941109  RH  012%=      5-min Rain = 0
KSB1 212245Z 20015KT 19/M11 A2969 RMK A01 T01931112  RH  012%=      5-min Rain = 0
KSB1 212246Z 21016KT 19/M11 A2969 RMK A01 T01931114  RH  012%=      5-min Rain = 0
KSB1 212247Z 21017KT 19/M12 A2969 RMK A01 T01931115  RH  011%=      5-min Rain = 0
KSB1 212248Z 22015KT 19/M12 A2969 RMK A01 T01931115  RH  011%=      5-min Rain = 0
KSB1 212249Z 22014KT 19/M11 A2969 RMK A01 T01931114  RH  011%=      5-min Rain = 0
KSB1 212250Z 22012KT 19/M11 A2969 RMK A01 T01941113  RH  011%=      5-min Rain = 0
KSB1 212251Z 23014G19KT 19/M11 A2969 RMK A01 T01941113  RH  011%=      5-min Rain = 0
KSB1 212252Z 23019KT 19/M11 A2969 RMK A01 T01931114  RH  011%=      5-min Rain = 0
KSB1 212253Z 23016KT 19/M11 A2969 RMK A01 T01921113  RH  012%=      5-min Rain = 0
KSB1 212254Z 23016KT 19/M11 A2969 RMK A01 T01911113  RH  012%=      5-min Rain = 0
KSB1 212255Z 23016KT 19/M11 A2969 RMK A01 T01911113  RH  012%=      5-min Rain = 0
KSB1 212256Z 23011KT 19/M11 A2969 RMK A01 T01911113  RH  012%=      5-min Rain = 0
KSB1 212257Z 23012KT 19/M11 A2969 RMK A01 T01901113  RH  012%=      5-min Rain = 0
KSB1 212258Z 22013KT 19/M11 A2969 RMK A01 T01881113  RH  012%=      5-min Rain = 0
KSB1 212259Z 20015KT 19/M11 A2969 RMK A01 T01871113  RH  012%=      5-min Rain = 0
KSB1 212300Z 22010KT 19/M11 A2969 RMK A01 T01861111  RH  012%=      5-min Rain = 0
KSB1 212301Z 23010KT 19/M11 A2969 RMK A01 T01861110  RH  012%=      5-min Rain = 0
KSB1 212302Z 22013KT 19/M11 A2969 RMK A01 T01861110  RH  012%=      5-min Rain = 0
KSB1 212303Z 22011KT 19/M11 A2969 RMK A01 T01861110  RH  012%=      5-min Rain = 0
KSB1 212304Z 21010KT 19/M11 A2969 RMK A01 T01851110  RH  012%=      5-min Rain = 0
KSB1 212305Z 21012G17KT 18/M11 A2969 RMK A01 T01841111  RH  012%=      5-min Rain = 0
KSB1 212306Z 22015KT 18/M11 A2969 RMK A01 T01831111  RH  012%=      5-min Rain = 0
KSB1 212307Z 22018KT 18/M11 A2969 RMK A01 T01831113  RH  012%=      5-min Rain = 0
KSB1 212308Z 22015KT 18/M11 A2969 RMK A01 T01821114  RH  012%=      5-min Rain = 0
KSB1 212309Z 22015KT 18/M12 A2969 RMK A01 T01821115  RH  012%=      5-min Rain = 0
KSB1 212310Z 22013KT 18/M12 A2969 RMK A01 T01821116  RH  012%=      5-min Rain = 0
KSB1 212311Z 22015G20KT 18/M12 A2969 RMK A01 T01811117  RH  012%=      5-min Rain = 0
KSB1 212312Z 23016KT 18/M12 A2969 RMK A01 T01811116  RH  012%=      5-min Rain = 0
KSB1 212313Z 22014KT 18/M12 A2969 RMK A01 T01801116  RH  012%=      5-min Rain = 0
KSB1 212314Z 23013KT 18/M12 A2969 RMK A01 T01801116  RH  012%=      5-min Rain = 0
KSB1 212315Z 23013KT 18/M12 A2969 RMK A01 T01801115  RH  012%=      5-min Rain = 0
KSB1 212316Z 22013KT 18/M12 A2969 RMK A01 T01801115  RH  012%=      5-min Rain = 0
KSB1 212317Z 21014G21KT 18/M12 A2969 RMK A01 T01801115  RH  012%=      5-min Rain = 0
KSB1 212318Z 21017KT 18/M11 A2969 RMK A01 T01801114  RH  012%=      5-min Rain = 0
KSB1 212319Z 22013KT 18/M11 A2969 RMK A01 T01791114  RH  012%=      5-min Rain = 0
KSB1 212320Z 21013KT 18/M11 A2969 RMK A01 T01791114  RH  012%=      5-min Rain = 0
KSB1 212321Z 22012KT 18/M11 A2969 RMK A01 T01791114  RH  012%=      5-min Rain = 0
KSB1 212322Z 23012KT 18/M11 A2969 RMK A01 T01791114  RH  013%=      5-min Rain = 0
KSB1 212323Z 23012KT 18/M11 A2969 RMK A01 T01791114  RH  013%=      5-min Rain = 0
KSB1 212324Z 22012KT 18/M11 A2969 RMK A01 T01781114  RH  013%=      5-min Rain = 0
KSB1 212325Z 22014G20KT 18/M11 A2969 RMK A01 T01781114  RH  013%=      5-min Rain = 0
KSB1 212326Z 23016KT 18/M11 A2969 RMK A01 T01781114  RH  013%=      5-min Rain = 0
KSB1 212327Z 23015KT 18/M12 A2969 RMK A01 T01781115  RH  013%=      5-min Rain = 0
KSB1 212328Z 23016KT 18/M12 A2969 RMK A01 T01781115  RH  013%=      5-min Rain = 0
KSB1 212329Z 23015KT 18/M12 A2969 RMK A01 T01781115  RH  012%=      5-min Rain = 0
KSB1 212330Z 22017KT 18/M12 A2969 RMK A01 T01781116  RH  012%=      5-min Rain = 0
KSB1 212331Z 23017KT 18/M12 A2968 RMK A01 T01781116  RH  012%=      5-min Rain = 0
KSB1 212332Z 23015KT 18/M12 A2968 RMK A01 T01791116  RH  012%=      5-min Rain = 0
KSB1 212333Z 23018KT 18/M12 A2968 RMK A01 T01791116  RH  012%=      5-min Rain = 0
KSB1 212334Z 23018KT 18/M12 A2968 RMK A01 T01791116  RH  012%=      5-min Rain = 0
KSB1 212335Z 23015KT 18/M12 A2968 RMK A01 T01791116  RH  012%=      5-min Rain = 0
KSB1 212336Z 24014KT 18/M12 A2969 RMK A01 T01791115  RH  012%=      5-min Rain = 0
KSB1 212337Z 25015KT 18/M11 A2968 RMK A01 T01781114  RH  013%=      5-min Rain = 0
KSB1 212338Z 25014KT 18/M11 A2969 RMK A01 T01781113  RH  013%=      5-min Rain = 0
KSB1 212339Z 25010KT 18/M11 A2969 RMK A01 T01781113  RH  013%=      5-min Rain = 0
KSB1 212340Z 25013KT 18/M11 A2969 RMK A01 T01771112  RH  013%=      5-min Rain = 0
KSB1 212341Z 24014KT 18/M11 A2969 RMK A01 T01771112  RH  013%=      5-min Rain = 0
KSB1 212342Z 23014KT 18/M11 A2969 RMK A01 T01771113  RH  013%=      5-min Rain = 0
KSB1 212343Z 23012KT 18/M11 A2969 RMK A01 T01771113  RH  013%=      5-min Rain = 0
KSB1 212344Z 24012KT 18/M11 A2969 RMK A01 T01771113  RH  013%=      5-min Rain = 0
KSB1 212345Z 24012KT 18/M11 A2969 RMK A01 T01771113  RH  013%=      5-min Rain = 0
KSB1 212346Z 24011KT 18/M11 A2969 RMK A01 T01771113  RH  013%=      5-min Rain = 0
KSB1 212347Z 23011KT 18/M11 A2969 RMK A01 T01771113  RH  013%=      5-min Rain = 0
KSB1 212348Z 23012KT 18/M11 A2969 RMK A01 T01771112  RH  013%=      5-min Rain = 0
KSB1 212349Z 23013KT 18/M11 A2969 RMK A01 T01771114  RH  013%=      5-min Rain = 0
KSB1 212350Z 23015KT 18/M11 A2969 RMK A01 T01781114  RH  013%=      5-min Rain = 0
KSB1 212351Z 23020KT 18/M11 A2969 RMK A01 T01791114  RH  013%=      5-min Rain = 0
KSB1 212352Z 24021KT 18/M12 A2969 RMK A01 T01791115  RH  012%=      5-min Rain = 0
KSB1 212353Z 24016KT 18/M12 A2969 RMK A01 T01801115  RH  012%=      5-min Rain = 0
KSB1 212354Z 24012KT 18/M12 A2969 RMK A01 T01801115  RH  012%=      5-min Rain = 0
KSB1 212355Z 24013KT 18/M12 A2969 RMK A01 T01801115  RH  012%=      5-min Rain = 0
KSB1 212356Z 24017KT 18/M11 A2969 RMK A01 T01801114  RH  012%=      5-min Rain = 0
KSB1 212357Z 23017G24KT 18/M12 A2969 RMK A01 T01801115  RH  012%=      5-min Rain = 0
KSB1 212358Z 23017G22KT 18/M12 A2969 RMK A01 T01811116  RH  012%=      5-min Rain = 0
KSB1 212359Z 23019G24KT 18/M12 A2969 RMK A01 T01821115  RH  012%=      5-min Rain = 0
KSB1 220000Z 23018KT 18/M12 A2969 RMK A01 T01811116  RH  012%=      5-min Rain = 0
KSB1 220001Z 23017KT 18/M12 A2969 RMK A01 T01821117  RH  012%=      5-min Rain = 0
KSB1 220002Z 24014KT 18/M12 A2969 RMK A01 T01811117  RH  012%=      5-min Rain = 0
KSB1 220003Z 24014KT 18/M12 A2969 RMK A01 T01811116  RH  012%=      5-min Rain = 0
KSB1 220004Z 23018KT 18/M12 A2969 RMK A01 T01811117  RH  012%=      5-min Rain = 0
KSB1 220005Z 24015KT 18/M12 A2969 RMK A01 T01811116  RH  012%=      5-min Rain = 0
KSB1 220006Z 24015KT 18/M12 A2969 RMK A01 T01811116  RH  012%=      5-min Rain = 0
KSB1 220007Z 24014KT 18/M12 A2969 RMK A01 T01811116  RH  012%=      5-min Rain = 0
KSB1 220008Z 24012KT 18/M12 A2969 RMK A01 T01811116  RH  012%=      5-min Rain = 0
KSB1 220009Z 23013KT 18/M12 A2969 RMK A01 T01821116  RH  012%=      5-min Rain = 0
KSB1 220010Z 23012KT 18/M12 A2969 RMK A01 T01831116  RH  012%=      5-min Rain = 0
KSB1 220011Z 23013KT 18/M12 A2969 RMK A01 T01831116  RH  012%=      5-min Rain = 0
KSB1 220012Z 23015G20KT 18/M12 A2969 RMK A01 T01831116  RH  012%=      5-min Rain = 0
KSB1 220013Z 24017KT 18/M12 A2969 RMK A01 T01831117  RH  012%=      5-min Rain = 0
KSB1 220014Z 24018G23KT 18/M12 A2969 RMK A01 T01831118  RH  012%=      5-min Rain = 0
KSB1 220015Z 23018KT 18/M12 A2969 RMK A01 T01841119  RH  012%=      5-min Rain = 0
KSB1 220016Z 23016G22KT 18/M12 A2969 RMK A01 T01841120  RH  012%=      5-min Rain = 0
KSB1 220017Z 23015G22KT 18/M12 A2969 RMK A01 T01841121  RH  012%=      5-min Rain = 0
KSB1 220018Z 23013KT 18/M12 A297 RMK A01 T01841120  RH  012%=      5-min Rain = 0
KSB1 220019Z 24015KT 18/M12 A2969 RMK A01 T01841119  RH  012%=      5-min Rain = 0
KSB1 220020Z 23017KT 18/M12 A2969 RMK A01 T01841120  RH  012%=      5-min Rain = 0
KSB1 220021Z 23016KT 18/M12 A2969 RMK A01 T01841120  RH  012%=      5-min Rain = 0
KSB1 220022Z 22017KT 18/M12 A2969 RMK A01 T01841120  RH  012%=      5-min Rain = 0
KSB1 220023Z 22014KT 18/M12 A297 RMK A01 T01841120  RH  012%=      5-min Rain = 0
KSB1 220024Z 22017KT 18/M12 A297 RMK A01 T01841120  RH  012%=      5-min Rain = 0
KSB1 220025Z 23013KT 18/M12 A297 RMK A01 T01841121  RH  012%=      5-min Rain = 0
KSB1 220026Z 22012KT 18/M12 A297 RMK A01 T01841121  RH  012%=      5-min Rain = 0
KSB1 220027Z 23013KT 18/M12 A297 RMK A01 T01841120  RH  012%=      5-min Rain = 0
KSB1 220028Z 23011KT 18/M12 A297 RMK A01 T01841120  RH  012%=      5-min Rain = 0
KSB1 220029Z 23012KT 18/M12 A297 RMK A01 T01841120  RH  012%=      5-min Rain = 0
KSB1 220030Z 23015KT 18/M12 A297 RMK A01 T01831120  RH  012%=      5-min Rain = 0
KSB1 220031Z 23016KT 18/M12 A297 RMK A01 T01831119  RH  012%=      5-min Rain = 0
KSB1 220032Z 24015KT 18/M12 A297 RMK A01 T01831118  RH  012%=      5-min Rain = 0
KSB1 220033Z 23012KT 18/M12 A297 RMK A01 T01831118  RH  012%=      5-min Rain = 0
KSB1 220034Z 23012KT 18/M12 A297 RMK A01 T01821117  RH  012%=      5-min Rain = 0
KSB1 220035Z 23011KT 18/M12 A297 RMK A01 T01821117  RH  012%=      5-min Rain = 0
KSB1 220036Z 23011KT 18/M12 A297 RMK A01 T01811117  RH  012%=      5-min Rain = 0
KSB1 220037Z 24010KT 18/M12 A297 RMK A01 T01801117  RH  012%=      5-min Rain = 0
KSB1 220038Z 24009KT 18/M12 A297 RMK A01 T01791117  RH  012%=      5-min Rain = 0
KSB1 220039Z 24009KT 18/M12 A297 RMK A01 T01781117  RH  012%=      5-min Rain = 0
KSB1 220040Z 24012KT 18/M12 A297 RMK A01 T01771117  RH  012%=      5-min Rain = 0
KSB1 220041Z 24013KT 18/M12 A297 RMK A01 T01771117  RH  012%=      5-min Rain = 0
KSB1 220042Z 24010KT 18/M12 A297 RMK A01 T01771118  RH  012%=      5-min Rain = 0
KSB1 220043Z 24013KT 18/M12 A297 RMK A01 T01761118  RH  012%=      5-min Rain = 0
KSB1 220044Z 24012KT 18/M12 A297 RMK A01 T01751118  RH  012%=      5-min Rain = 0
KSB1 220045Z 24013KT 18/M12 A2971 RMK A01 T01751118  RH  012%=      5-min Rain = 0
KSB1 220046Z 23011KT 18/M12 A2971 RMK A01 T01751119  RH  012%=      5-min Rain = 0
KSB1 220047Z 23012KT 17/M12 A297 RMK A01 T01741119  RH  012%=      5-min Rain = 0
KSB1 220048Z 23012KT 17/M12 A297 RMK A01 T01741119  RH  012%=      5-min Rain = 0
KSB1 220049Z 23013KT 17/M12 A2971 RMK A01 T01741118  RH  012%=      5-min Rain = 0
KSB1 220050Z 23011KT 18/M12 A2971 RMK A01 T01751118  RH  012%=      5-min Rain = 0
KSB1 220051Z 23010KT 18/M12 A2971 RMK A01 T01751119  RH  012%=      5-min Rain = 0
KSB1 220052Z 23010KT 17/M12 A2971 RMK A01 T01741119  RH  012%=      5-min Rain = 0
KSB1 220053Z 23009KT 17/M12 A2971 RMK A01 T01721120  RH  012%=      5-min Rain = 0
KSB1 220054Z 23009KT 17/M12 A2971 RMK A01 T01721121  RH  012%=      5-min Rain = 0
KSB1 220055Z 23009KT 17/M12 A2971 RMK A01 T01711121  RH  012%=      5-min Rain = 0
KSB1 220056Z 23011KT 17/M12 A2971 RMK A01 T01701121  RH  013%=      5-min Rain = 0
KSB1 220057Z 23014KT 17/M12 A2971 RMK A01 T01701120  RH  013%=      5-min Rain = 0
KSB1 220058Z 23012KT 17/M12 A2971 RMK A01 T01721120  RH  012%=      5-min Rain = 0
KSB1 220059Z 24009KT 17/M12 A2971 RMK A01 T01731120  RH  012%=      5-min Rain = 0
KSB1 220100Z 24009KT 17/M12 A2971 RMK A01 T01711122  RH  012%=      5-min Rain = 0
KSB1 220101Z 23011KT 17/M12 A2971 RMK A01 T01691122  RH  013%=      5-min Rain = 0
KSB1 220102Z 24010KT 17/M12 A2971 RMK A01 T01691122  RH  013%=      5-min Rain = 0
KSB1 220103Z 24010KT 17/M12 A2972 RMK A01 T01701122  RH  012%=      5-min Rain = 0
KSB1 220104Z 25009KT 17/M12 A2972 RMK A01 T01681120  RH  013%=      5-min Rain = 0
KSB1 220105Z 26009KT 17/M12 A2972 RMK A01 T01671119  RH  013%=      5-min Rain = 0
KSB1 220106Z 27010KT 17/M12 A2972 RMK A01 T01671118  RH  013%=      5-min Rain = 0
KSB1 220107Z 27010KT 17/M12 A2972 RMK A01 T01671116  RH  013%=      5-min Rain = 0
KSB1 220108Z 27011KT 17/M12 A2972 RMK A01 T01671115  RH  013%=      5-min Rain = 0
KSB1 220109Z 26012KT 17/M11 A2972 RMK A01 T01671114  RH  014%=      5-min Rain = 0
KSB1 220110Z 27011KT 17/M11 A2972 RMK A01 T01671114  RH  014%=      5-min Rain = 0
KSB1 220111Z 28008KT 17/M11 A2972 RMK A01 T01661114  RH  014%=      5-min Rain = 0
KSB1 220112Z 28008KT 17/M11 A2972 RMK A01 T01651114  RH  014%=      5-min Rain = 0
KSB1 220113Z 29009KT 16/M12 A2972 RMK A01 T01631115  RH  014%=      5-min Rain = 0
KSB1 220114Z 29008KT 16/M12 A2972 RMK A01 T01611115  RH  014%=      5-min Rain = 0
KSB1 220115Z 30007KT 16/M11 A2972 RMK A01 T01611114  RH  014%=      5-min Rain = 0
KSB1 220116Z 29009KT 16/M12 A2972 RMK A01 T01611115  RH  014%=      5-min Rain = 0
KSB1 220117Z 29009KT 16/M12 A2972 RMK A01 T01611115  RH  014%=      5-min Rain = 0
KSB1 220118Z 29008KT 16/M12 A2972 RMK A01 T01611115  RH  014%=      5-min Rain = 0
KSB1 220119Z 29008KT 16/M12 A2972 RMK A01 T01611115  RH  014%=      5-min Rain = 0
KSB1 220120Z 29009KT 16/M12 A2973 RMK A01 T01611115  RH  014%=      5-min Rain = 0
KSB1 220121Z 28008KT 16/M11 A2973 RMK A01 T01601114  RH  014%=      5-min Rain = 0
KSB1 220122Z 28009KT 16/M11 A2973 RMK A01 T01581114  RH  014%=      5-min Rain = 0
KSB1 220123Z 28008KT 16/M11 A2973 RMK A01 T01561114  RH  014%=      5-min Rain = 0
KSB1 220124Z 28008KT 15/M11 A2973 RMK A01 T01541114  RH  015%=      5-min Rain = 0
KSB1 220125Z 28008KT 15/M11 A2973 RMK A01 T01521114  RH  015%=      5-min Rain = 0
KSB1 220126Z 28008KT 15/M11 A2973 RMK A01 T01521114  RH  015%=      5-min Rain = 0
KSB1 220127Z 28007KT 15/M11 A2973 RMK A01 T01511114  RH  015%=      5-min Rain = 0
KSB1 220128Z 28008KT 15/M11 A2973 RMK A01 T01501114  RH  015%=      5-min Rain = 0
KSB1 220129Z 28007KT 15/M12 A2973 RMK A01 T01491115  RH  015%=      5-min Rain = 0
KSB1 220130Z 28007KT 15/M11 A2973 RMK A01 T01491114  RH  015%=      5-min Rain = 0
KSB1 220131Z 28008KT 15/M11 A2973 RMK A01 T01491114  RH  015%=      5-min Rain = 0
KSB1 220132Z 28008KT 15/M12 A2974 RMK A01 T01481115  RH  015%=      5-min Rain = 0
KSB1 220133Z 27008KT 15/M11 A2974 RMK A01 T01481114  RH  015%=      5-min Rain = 0
KSB1 220134Z 28009KT 15/M11 A2974 RMK A01 T01481114  RH  015%=      5-min Rain = 0
KSB1 220135Z 28008KT 15/M11 A2974 RMK A01 T01481114  RH  015%=      5-min Rain = 0
KSB1 220136Z 27007KT 15/M12 A2974 RMK A01 T01481115  RH  015%=      5-min Rain = 0
KSB1 220137Z 27007KT 15/M12 A2974 RMK A01 T01471115  RH  015%=      5-min Rain = 0
KSB1 220138Z 28007KT 15/M12 A2974 RMK A01 T01471115  RH  015%=      5-min Rain = 0
KSB1 220139Z 28007KT 15/M12 A2974 RMK A01 T01461116  RH  015%=      5-min Rain = 0
KSB1 220140Z 28006KT 15/M12 A2974 RMK A01 T01451116  RH  015%=      5-min Rain = 0
KSB1 220141Z 29007KT 14/M12 A2974 RMK A01 T01441115  RH  015%=      5-min Rain = 0
KSB1 220142Z 28007KT 14/M12 A2974 RMK A01 T01441115  RH  016%=      5-min Rain = 0
KSB1 220143Z 28007KT 14/M12 A2974 RMK A01 T01431115  RH  016%=      5-min Rain = 0
KSB1 220144Z 29007KT 14/M12 A2974 RMK A01 T01431115  RH  016%=      5-min Rain = 0
KSB1 220145Z 29007KT 14/M12 A2974 RMK A01 T01431116  RH  016%=      5-min Rain = 0
KSB1 220146Z 28008KT 14/M12 A2974 RMK A01 T01431115  RH  016%=      5-min Rain = 0
KSB1 220147Z 27008KT 14/M12 A2974 RMK A01 T01431116  RH  016%=      5-min Rain = 0
KSB1 220148Z 28009KT 14/M12 A2974 RMK A01 T01421116  RH  016%=      5-min Rain = 0
KSB1 220149Z 28008KT 14/M12 A2974 RMK A01 T01421115  RH  016%=      5-min Rain = 0
KSB1 220150Z 29009KT 14/M12 A2974 RMK A01 T01421115  RH  016%=      5-min Rain = 0
KSB1 220151Z 29009KT 14/M12 A2974 RMK A01 T01421115  RH  016%=      5-min Rain = 0
KSB1 220152Z 28009KT 14/M11 A2974 RMK A01 T01431114  RH  016%=      5-min Rain = 0
KSB1 220153Z 28008KT 14/M11 A2974 RMK A01 T01441114  RH  016%=      5-min Rain = 0
KSB1 220154Z 29008KT 14/M12 A2975 RMK A01 T01441115  RH  016%=      5-min Rain = 0
KSB1 220155Z 28008KT 14/M12 A2975 RMK A01 T01431115  RH  016%=      5-min Rain = 0
KSB1 220156Z 28008KT 14/M12 A2975 RMK A01 T01431115  RH  016%=      5-min Rain = 0
KSB1 220157Z 27008KT 14/M12 A2975 RMK A01 T01431115  RH  016%=      5-min Rain = 0
KSB1 220158Z 28007KT 14/M12 A2975 RMK A01 T01421115  RH  016%=      5-min Rain = 0
KSB1 220159Z 28008KT 14/M12 A2975 RMK A01 T01401115  RH  016%=      5-min Rain = 0
KSB1 220200Z 28008KT 14/M11 A2975 RMK A01 T01401114  RH  016%=      5-min Rain = 0
KSB1 220201Z 28007KT 14/M11 A2975 RMK A01 T01401114  RH  016%=      5-min Rain = 0
KSB1 220202Z 27008KT 14/M12 A2975 RMK A01 T01391115  RH  016%=      5-min Rain = 0
KSB1 220203Z 27008KT 14/M12 A2975 RMK A01 T01391115  RH  016%=      5-min Rain = 0
KSB1 220204Z 28008KT 14/M12 A2975 RMK A01 T01391115  RH  016%=      5-min Rain = 0
KSB1 220205Z 27007KT 14/M11 A2975 RMK A01 T01381114  RH  016%=      5-min Rain = 0
KSB1 220206Z 27008KT 14/M11 A2975 RMK A01 T01391113  RH  016%=      5-min Rain = 0
KSB1 220207Z 27008KT 14/M11 A2975 RMK A01 T01391114  RH  016%=      5-min Rain = 0
KSB1 220208Z 27008KT 14/M11 A2975 RMK A01 T01381114  RH  016%=      5-min Rain = 0
KSB1 220209Z 27008KT 14/M11 A2975 RMK A01 T01381114  RH  016%=      5-min Rain = 0
KSB1 220210Z 27008KT 14/M11 A2975 RMK A01 T01381114  RH  016%=      5-min Rain = 0
KSB1 220211Z 27008KT 14/M11 A2975 RMK A01 T01391113  RH  016%=      5-min Rain = 0
KSB1 220212Z 27007KT 14/M11 A2975 RMK A01 T01391114  RH  016%=      5-min Rain = 0
KSB1 220213Z 27007KT 14/M11 A2975 RMK A01 T01381114  RH  016%=      5-min Rain = 0
KSB1 220214Z 28008KT 14/M11 A2975 RMK A01 T01371114  RH  016%=      5-min Rain = 0
KSB1 220215Z 28007KT 14/M11 A2975 RMK A01 T01371114  RH  016%=      5-min Rain = 0
KSB1 220216Z 28007KT 14/M11 A2975 RMK A01 T01361114  RH  017%=      5-min Rain = 0
KSB1 220217Z 28008KT 14/M11 A2976 RMK A01 T01361113  RH  017%=      5-min Rain = 0
KSB1 220218Z 28008KT 14/M11 A2976 RMK A01 T01351114  RH  017%=      5-min Rain = 0
KSB1 220219Z 28008KT 14/M11 A2976 RMK A01 T01351113  RH  017%=      5-min Rain = 0
KSB1 220220Z 28008KT 14/M11 A2976 RMK A01 T01351113  RH  017%=      5-min Rain = 0
KSB1 220221Z 28008KT 14/M11 A2976 RMK A01 T01351113  RH  017%=      5-min Rain = 0
KSB1 220222Z 28008KT 14/M11 A2976 RMK A01 T01361113  RH  017%=      5-min Rain = 0
KSB1 220223Z 28008KT 14/M11 A2976 RMK A01 T01361113  RH  017%=      5-min Rain = 0
KSB1 220224Z 28008KT 14/M11 A2976 RMK A01 T01361113  RH  017%=      5-min Rain = 0
KSB1 220225Z 28008KT 14/M11 A2976 RMK A01 T01361112  RH  017%=      5-min Rain = 0
KSB1 220226Z 28009KT 14/M11 A2976 RMK A01 T01361112  RH  017%=      5-min Rain = 0
KSB1 220227Z 28009KT 14/M11 A2976 RMK A01 T01351113  RH  017%=      5-min Rain = 0
KSB1 220228Z 28008KT 13/M11 A2976 RMK A01 T01341113  RH  017%=      5-min Rain = 0
KSB1 220229Z 28008KT 13/M11 A2976 RMK A01 T01341113  RH  017%=      5-min Rain = 0
KSB1 220230Z 28009KT 13/M11 A2976 RMK A01 T01341113  RH  017%=      5-min Rain = 0
KSB1 220231Z 27009KT 13/M11 A2976 RMK A01 T01341113  RH  017%=      5-min Rain = 0
KSB1 220232Z 27008KT 14/M11 A2976 RMK A01 T01351112  RH  017%=      5-min Rain = 0
KSB1 220233Z 27008KT 13/M11 A2976 RMK A01 T01341113  RH  017%=      5-min Rain = 0
KSB1 220234Z 27009KT 13/M11 A2976 RMK A01 T01331113  RH  017%=      5-min Rain = 0
KSB1 220235Z 27009KT 13/M11 A2976 RMK A01 T01331113  RH  017%=      5-min Rain = 0
KSB1 220236Z 27009KT 13/M11 A2976 RMK A01 T01341112  RH  017%=      5-min Rain = 0
KSB1 220237Z 27009KT 13/M11 A2976 RMK A01 T01341111  RH  017%=      5-min Rain = 0
KSB1 220238Z 27010KT 13/M11 A2976 RMK A01 T01341112  RH  017%=      5-min Rain = 0
KSB1 220239Z 28009KT 14/M11 A2976 RMK A01 T01361111  RH  017%=      5-min Rain = 0
KSB1 220240Z 28009KT 14/M11 A2976 RMK A01 T01361111  RH  017%=      5-min Rain = 0
KSB1 220241Z 28009KT 14/M11 A2976 RMK A01 T01351111  RH  017%=      5-min Rain = 0
KSB1 220242Z 28009KT 14/M11 A2976 RMK A01 T01351111  RH  017%=      5-min Rain = 0
KSB1 220243Z 28010KT 14/M11 A2976 RMK A01 T01351112  RH  017%=      5-min Rain = 0
KSB1 220244Z 28009KT 14/M11 A2977 RMK A01 T01351111  RH  017%=      5-min Rain = 0
KSB1 220245Z 28009KT 14/M11 A2977 RMK A01 T01351112  RH  017%=      5-min Rain = 0
KSB1 220246Z 29009KT 14/M11 A2977 RMK A01 T01351111  RH  017%=      5-min Rain = 0
KSB1 220247Z 29009KT 14/M11 A2977 RMK A01 T01351111  RH  017%=      5-min Rain = 0
KSB1 220248Z 29009KT 14/M11 A2977 RMK A01 T01351111  RH  017%=      5-min Rain = 0
KSB1 220249Z 29009KT 14/M11 A2977 RMK A01 T01351112  RH  017%=      5-min Rain = 0
KSB1 220250Z 29011KT 14/M11 A2977 RMK A01 T01351112  RH  017%=      5-min Rain = 0
KSB1 220251Z 28011KT 14/M11 A2977 RMK A01 T01361112  RH  017%=      5-min Rain = 0
KSB1 220252Z 29009KT 14/M11 A2977 RMK A01 T01371112  RH  017%=      5-min Rain = 0
KSB1 220253Z 29009KT 14/M11 A2977 RMK A01 T01371113  RH  017%=      5-min Rain = 0
KSB1 220254Z 29009KT 14/M11 A2977 RMK A01 T01361113  RH  017%=      5-min Rain = 0
KSB1 220255Z 29009KT 14/M11 A2977 RMK A01 T01361113  RH  017%=      5-min Rain = 0
KSB1 220256Z 29009KT 14/M12 A2977 RMK A01 T01361115  RH  016%=      5-min Rain = 0
KSB1 220257Z 29009KT 14/M12 A2977 RMK A01 T01371115  RH  016%=      5-min Rain = 0
KSB1 220258Z 29009KT 14/M12 A2977 RMK A01 T01371115  RH  016%=      5-min Rain = 0
KSB1 220259Z 29010KT 14/M12 A2977 RMK A01 T01371117  RH  016%=      5-min Rain = 0
KSB1 220300Z 29009KT 14/M12 A2977 RMK A01 T01371118  RH  016%=      5-min Rain = 0
KSB1 220301Z 29010KT 14/M12 A2977 RMK A01 T01391119  RH  016%=      5-min Rain = 0
KSB1 220302Z 29009KT 14/M12 A2977 RMK A01 T01391120  RH  015%=      5-min Rain = 0
KSB1 220303Z 29008KT 14/M12 A2977 RMK A01 T01391121  RH  015%=      5-min Rain = 0
KSB1 220304Z 29008KT 14/M12 A2977 RMK A01 T01391123  RH  015%=      5-min Rain = 0
KSB1 220305Z 30009KT 14/M12 A2977 RMK A01 T01381124  RH  015%=      5-min Rain = 0
KSB1 220306Z 29008KT 14/M13 A2977 RMK A01 T01381127  RH  015%=      5-min Rain = 0
KSB1 220307Z 29008KT 14/M13 A2977 RMK A01 T01391129  RH  014%=      5-min Rain = 0
KSB1 220308Z 29009KT 14/M13 A2977 RMK A01 T01381130  RH  014%=      5-min Rain = 0
KSB1 220309Z 29008KT 14/M13 A2978 RMK A01 T01381132  RH  014%=      5-min Rain = 0
KSB1 220310Z 29010KT 14/M13 A2978 RMK A01 T01381133  RH  014%=      5-min Rain = 0
KSB1 220311Z 29011KT 14/M14 A2978 RMK A01 T01371135  RH  014%=      5-min Rain = 0
KSB1 220312Z 29011KT 14/M14 A2978 RMK A01 T01371136  RH  014%=      5-min Rain = 0
KSB1 220313Z 29010KT 14/M14 A2978 RMK A01 T01381137  RH  014%=      5-min Rain = 0
KSB1 220314Z 29009KT 14/M14 A2978 RMK A01 T01381137  RH  014%=      5-min Rain = 0
KSB1 220315Z 30009KT 14/M14 A2978 RMK A01 T01361137  RH  014%=      5-min Rain = 0
KSB1 220316Z 29009KT 14/M14 A2978 RMK A01 T01361138  RH  014%=      5-min Rain = 0
KSB1 220317Z 30010KT 14/M14 A2978 RMK A01 T01361138  RH  014%=      5-min Rain = 0
KSB1 220318Z 29011KT 14/M14 A2978 RMK A01 T01361139  RH  013%=      5-min Rain = 0
KSB1 220319Z 29010KT 14/M14 A2978 RMK A01 T01361140  RH  013%=      5-min Rain = 0
KSB1 220320Z 29009KT 14/M14 A2978 RMK A01 T01371140  RH  013%=      5-min Rain = 0
KSB1 220321Z 29009KT 14/M14 A2978 RMK A01 T01361141  RH  013%=      5-min Rain = 0
KSB1 220322Z 29009KT 14/M14 A2978 RMK A01 T01361141  RH  013%=      5-min Rain = 0
KSB1 220323Z 29009KT 14/M14 A2978 RMK A01 T01361142  RH  013%=      5-min Rain = 0
KSB1 220324Z 29010KT 14/M14 A2978 RMK A01 T01361142  RH  013%=      5-min Rain = 0
KSB1 220325Z 30010KT 14/M14 A2978 RMK A01 T01361142  RH  013%=      5-min Rain = 0
KSB1 220326Z 29010KT 14/M14 A2978 RMK A01 T01361142  RH  013%=      5-min Rain = 0
KSB1 220327Z 29009KT 14/M14 A2978 RMK A01 T01361142  RH  013%=      5-min Rain = 0
KSB1 220328Z 29010KT 13/M14 A2978 RMK A01 T01341143  RH  013%=      5-min Rain = 0
KSB1 220329Z 30011KT 13/M14 A2978 RMK A01 T01341144  RH  013%=      5-min Rain = 0
KSB1 220330Z 29011KT 14/M14 A2978 RMK A01 T01361144  RH  013%=      5-min Rain = 0
KSB1 220331Z 29010KT 14/M14 A2978 RMK A01 T01361143  RH  013%=      5-min Rain = 0
KSB1 220332Z 28010KT 14/M14 A2978 RMK A01 T01361143  RH  013%=      5-min Rain = 0
KSB1 220333Z 30010KT 13/M15 A2978 RMK A01 T01341145  RH  013%=      5-min Rain = 0
KSB1 220334Z 29009KT 13/M15 A2978 RMK A01 T01331145  RH  013%=      5-min Rain = 0
KSB1 220335Z 29010KT 13/M15 A2979 RMK A01 T01331145  RH  013%=      5-min Rain = 0
KSB1 220336Z 29010KT 13/M15 A2979 RMK A01 T01311145  RH  013%=      5-min Rain = 0
KSB1 220337Z 29010KT 13/M15 A2979 RMK A01 T01311145  RH  013%=      5-min Rain = 0
KSB1 220338Z 30010KT 13/M15 A2979 RMK A01 T01311145  RH  013%=      5-min Rain = 0
KSB1 220339Z 29011KT 13/M15 A2979 RMK A01 T01321145  RH  013%=      5-min Rain = 0
KSB1 220340Z 28012KT 13/M15 A2979 RMK A01 T01331146  RH  013%=      5-min Rain = 0
KSB1 220341Z 29011KT 13/M15 A2979 RMK A01 T01331146  RH  013%=      5-min Rain = 0
KSB1 220342Z 28010KT 13/M15 A2979 RMK A01 T01321146  RH  013%=      5-min Rain = 0
KSB1 220343Z 28010KT 13/M15 A2979 RMK A01 T01311147  RH  013%=      5-min Rain = 0
KSB1 220344Z 29009KT 13/M15 A2979 RMK A01 T01301147  RH  013%=      5-min Rain = 0
KSB1 220345Z 29010KT 13/M15 A2979 RMK A01 T01281147  RH  013%=      5-min Rain = 0
KSB1 220346Z 29008KT 13/M15 A2979 RMK A01 T01281146  RH  013%=      5-min Rain = 0
KSB1 220347Z 29010KT 13/M15 A2979 RMK A01 T01281146  RH  013%=      5-min Rain = 0
KSB1 220348Z 29009KT 13/M15 A2979 RMK A01 T01291146  RH  013%=      5-min Rain = 0
KSB1 220349Z 29011KT 13/M15 A2979 RMK A01 T01301146  RH  013%=      5-min Rain = 0
KSB1 220350Z 30006KT 13/M15 A2979 RMK A01 T01301147  RH  013%=      5-min Rain = 0
KSB1 220351Z 29009KT 13/M15 A2979 RMK A01 T01301147  RH  013%=      5-min Rain = 0
KSB1 220352Z 29011KT 13/M15 A2979 RMK A01 T01301147  RH  013%=      5-min Rain = 0
KSB1 220353Z 29009KT 13/M15 A298 RMK A01 T01311147  RH  013%=      5-min Rain = 0
KSB1 220354Z 29009KT 13/M15 A298 RMK A01 T01311147  RH  013%=      5-min Rain = 0
KSB1 220355Z 29011KT 13/M15 A298 RMK A01 T01311147  RH  013%=      5-min Rain = 0
KSB1 220356Z 30012KT 13/M15 A298 RMK A01 T01321146  RH  013%=      5-min Rain = 0
KSB1 220357Z 29010KT 13/M14 A298 RMK A01 T01341144  RH  013%=      5-min Rain = 0
KSB1 220358Z 30010KT 13/M14 A298 RMK A01 T01341144  RH  013%=      5-min Rain = 0
KSB1 220359Z 30012KT 13/M15 A298 RMK A01 T01331145  RH  013%=      5-min Rain = 0
KSB1 220400Z 29010KT 13/M15 A298 RMK A01 T01321145  RH  013%=      5-min Rain = 0
KSB1 220401Z 30009KT 13/M14 A298 RMK A01 T01311144  RH  013%=      5-min Rain = 0
KSB1 220402Z 30008KT 13/M14 A298 RMK A01 T01311144  RH  013%=      5-min Rain = 0
KSB1 220403Z 29009KT 13/M15 A298 RMK A01 T01311145  RH  013%=      5-min Rain = 0
KSB1 220404Z 29009KT 13/M15 A298 RMK A01 T01311145  RH  013%=      5-min Rain = 0
KSB1 220405Z 29010KT 13/M15 A298 RMK A01 T01301145  RH  013%=      5-min Rain = 0
KSB1 220406Z 29009KT 13/M15 A298 RMK A01 T01321145  RH  013%=      5-min Rain = 0
KSB1 220407Z 29007KT 13/M15 A2981 RMK A01 T01321145  RH  013%=      5-min Rain = 0
KSB1 220408Z 30009KT 13/M15 A2981 RMK A01 T01311145  RH  013%=      5-min Rain = 0
KSB1 220409Z 31007KT 13/M15 A2981 RMK A01 T01311145  RH  013%=      5-min Rain = 0
KSB1 220410Z 30006KT 13/M15 A2981 RMK A01 T01301145  RH  013%=      5-min Rain = 0
KSB1 220411Z 30006KT 13/M15 A2981 RMK A01 T01291145  RH  013%=      5-min Rain = 0
KSB1 220412Z 29008KT 13/M15 A2981 RMK A01 T01281145  RH  013%=      5-min Rain = 0
KSB1 220413Z 30008KT 13/M15 A2981 RMK A01 T01281145  RH  014%=      5-min Rain = 0
KSB1 220414Z 30009KT 13/M15 A2981 RMK A01 T01281145  RH  013%=      5-min Rain = 0
KSB1 220415Z 30009KT 13/M14 A2981 RMK A01 T01301144  RH  013%=      5-min Rain = 0
KSB1 220416Z 31009KT 13/M15 A2981 RMK A01 T01311145  RH  013%=      5-min Rain = 0
KSB1 220417Z 30009KT 13/M15 A2981 RMK A01 T01301145  RH  013%=      5-min Rain = 0
KSB1 220418Z 31009KT 13/M15 A2981 RMK A01 T01291145  RH  013%=      5-min Rain = 0
KSB1 220419Z 30008G13KT 13/M15 A2981 RMK A01 T01291145  RH  013%=      5-min Rain = 0
KSB1 220420Z 30007KT 13/M15 A2981 RMK A01 T01281145  RH  014%=      5-min Rain = 0
KSB1 220421Z 31009KT 13/M14 A2981 RMK A01 T01281144  RH  014%=      5-min Rain = 0
KSB1 220422Z 30007KT 13/M14 A2981 RMK A01 T01281144  RH  014%=      5-min Rain = 0
KSB1 220423Z 31006KT 13/M14 A2982 RMK A01 T01291144  RH  014%=      5-min Rain = 0
KSB1 220424Z 31007KT 13/M15 A2982 RMK A01 T01281145  RH  014%=      5-min Rain = 0
KSB1 220425Z 32006KT 13/M15 A2982 RMK A01 T01261145  RH  014%=      5-min Rain = 0
KSB1 220426Z 32007KT 12/M15 A2982 RMK A01 T01221146  RH  014%=      5-min Rain = 0
KSB1 220427Z 33005KT 12/M15 A2982 RMK A01 T01181145  RH  014%=      5-min Rain = 0
KSB1 220428Z 33005KT 11/M15 A2982 RMK A01 T01131146  RH  015%=      5-min Rain = 0
KSB1 220429Z 33006KT 11/M15 A2982 RMK A01 T01081145  RH  015%=      5-min Rain = 0
KSB1 220430Z 32007KT 11/M15 A2982 RMK A01 T01051145  RH  016%=      5-min Rain = 0
KSB1 220431Z 33006KT 10/M14 A2982 RMK A01 T01041144  RH  016%=      5-min Rain = 0
KSB1 220432Z 34006KT 10/M14 A2982 RMK A01 T01041144  RH  016%=      5-min Rain = 0
KSB1 220433Z 33006KT 10/M15 A2982 RMK A01 T01001145  RH  016%=      5-min Rain = 0
KSB1 220434Z 32005KT 10/M15 A2982 RMK A01 T00981145  RH  016%=      5-min Rain = 0
KSB1 220435Z 35004KT 10/M15 A2982 RMK A01 T00981145  RH  017%=      5-min Rain = 0
KSB1 220436Z 35003KT 10/M15 A2982 RMK A01 T00971145  RH  017%=      5-min Rain = 0
KSB1 220437Z 34002KT 10/M15 A2983 RMK A01 T00961145  RH  017%=      5-min Rain = 0
KSB1 220438Z 35003KT 09/M15 A2983 RMK A01 T00941145  RH  017%=      5-min Rain = 0
KSB1 220439Z 36006KT 09/M15 A2983 RMK A01 T00911145  RH  017%=      5-min Rain = 0
KSB1 220440Z 35006KT 09/M15 A2983 RMK A01 T00891145  RH  017%=      5-min Rain = 0
KSB1 220441Z 36006KT 09/M15 A2983 RMK A01 T00881146  RH  018%=      5-min Rain = 0
KSB1 220442Z 36006KT 09/M15 A2983 RMK A01 T00861145  RH  018%=      5-min Rain = 0
KSB1 220443Z 36008KT 09/M15 A2983 RMK A01 T00861145  RH  018%=      5-min Rain = 0
KSB1 220444Z 36008KT 09/M15 A2983 RMK A01 T00861145  RH  018%=      5-min Rain = 0
KSB1 220445Z 35008KT 09/M14 A2983 RMK A01 T00861144  RH  018%=      5-min Rain = 0
KSB1 220446Z 36009KT 09/M15 A2983 RMK A01 T00871146  RH  018%=      5-min Rain = 0
KSB1 220447Z 36009KT 09/M15 A2983 RMK A01 T00881146  RH  018%=      5-min Rain = 0
KSB1 220448Z 00009KT 09/M15 A2983 RMK A01 T00891146  RH  017%=      5-min Rain = 0
KSB1 220449Z 36008KT 09/M15 A2983 RMK A01 T00891146  RH  017%=      5-min Rain = 0
KSB1 220450Z 36009KT 09/M15 A2983 RMK A01 T00891146  RH  017%=      5-min Rain = 0
KSB1 220451Z 00009KT 09/M15 A2983 RMK A01 T00881146  RH  017%=      5-min Rain = 0
KSB1 220452Z 36009KT 09/M15 A2983 RMK A01 T00871147  RH  018%=      5-min Rain = 0
KSB1 220453Z 35009KT 09/M15 A2983 RMK A01 T00871147  RH  018%=      5-min Rain = 0
KSB1 220454Z 35009KT 09/M15 A2983 RMK A01 T00871146  RH  018%=      5-min Rain = 0
KSB1 220455Z 35008KT 09/M15 A2983 RMK A01 T00881146  RH  017%=      5-min Rain = 0
KSB1 220456Z 35008KT 09/M15 A2983 RMK A01 T00881146  RH  018%=      5-min Rain = 0
KSB1 220457Z 35009KT 09/M15 A2983 RMK A01 T00881146  RH  018%=      5-min Rain = 0
KSB1 220458Z 35009KT 09/M15 A2984 RMK A01 T00881146  RH  017%=      5-min Rain = 0
KSB1 220459Z 34007KT 09/M14 A2984 RMK A01 T00891144  RH  018%=      5-min Rain = 0
KSB1 220500Z 35008KT 09/M14 A2984 RMK A01 T00891144  RH  018%=      5-min Rain = 0
KSB1 220501Z 35009KT 09/M14 A2984 RMK A01 T00891144  RH  018%=      5-min Rain = 0
KSB1 220502Z 34008KT 09/M14 A2984 RMK A01 T00891144  RH  018%=      5-min Rain = 0
KSB1 220503Z 34008KT 09/M14 A2984 RMK A01 T00891144  RH  018%=      5-min Rain = 0
KSB1 220504Z 34008KT 09/M14 A2984 RMK A01 T00891144  RH  018%=      5-min Rain = 0
KSB1 220505Z 34009KT 09/M14 A2984 RMK A01 T00891144  RH  018%=      5-min Rain = 0
KSB1 220506Z 34010KT 09/M14 A2984 RMK A01 T00891144  RH  018%=      5-min Rain = 0
KSB1 220507Z 34010KT 09/M14 A2984 RMK A01 T00901144  RH  018%=      5-min Rain = 0
KSB1 220508Z 35010KT 09/M14 A2984 RMK A01 T00921144  RH  017%=      5-min Rain = 0
KSB1 220509Z 34010KT 09/M14 A2984 RMK A01 T00931143  RH  017%=      5-min Rain = 0
KSB1 220510Z 34009KT 09/M14 A2984 RMK A01 T00921144  RH  017%=      5-min Rain = 0
KSB1 220511Z 34009KT 09/M14 A2984 RMK A01 T00921144  RH  017%=      5-min Rain = 0
KSB1 220512Z 34009KT 09/M14 A2984 RMK A01 T00921144  RH  017%=      5-min Rain = 0
KSB1 220513Z 34009KT 09/M14 A2984 RMK A01 T00911144  RH  017%=      5-min Rain = 0
KSB1 220514Z 34009KT 09/M14 A2984 RMK A01 T00911144  RH  017%=      5-min Rain = 0
KSB1 220515Z 34010KT 09/M14 A2984 RMK A01 T00921144  RH  017%=      5-min Rain = 0
KSB1 220516Z 34009KT 09/M14 A2984 RMK A01 T00941144  RH  017%=      5-min Rain = 0
KSB1 220517Z 34010KT 10/M14 A2984 RMK A01 T00961144  RH  017%=      5-min Rain = 0
KSB1 220518Z 34010KT 10/M14 A2984 RMK A01 T00971144  RH  017%=      5-min Rain = 0
KSB1 220519Z 34009KT 10/M14 A2984 RMK A01 T00981144  RH  017%=      5-min Rain = 0
KSB1 220520Z 34008KT 10/M14 A2984 RMK A01 T00991144  RH  017%=      5-min Rain = 0
KSB1 220521Z 34008KT 10/M14 A2984 RMK A01 T00981144  RH  017%=      5-min Rain = 0
KSB1 220522Z 33008KT 10/M15 A2984 RMK A01 T00991146  RH  016%=      5-min Rain = 0
KSB1 220523Z 34008KT 10/M15 A2984 RMK A01 T01001146  RH  016%=      5-min Rain = 0
KSB1 220524Z 33008KT 10/M15 A2984 RMK A01 T01001146  RH  016%=      5-min Rain = 0
KSB1 220525Z 33008KT 10/M15 A2984 RMK A01 T01001146  RH  016%=      5-min Rain = 0
KSB1 220526Z 33007KT 10/M15 A2984 RMK A01 T01001146  RH  016%=      5-min Rain = 0
KSB1 220527Z 33007KT 10/M15 A2984 RMK A01 T01001146  RH  016%=      5-min Rain = 0
KSB1 220528Z 33007KT 10/M15 A2984 RMK A01 T00991147  RH  016%=      5-min Rain = 0
KSB1 220529Z 33007KT 10/M15 A2984 RMK A01 T00991147  RH  016%=      5-min Rain = 0
KSB1 220530Z 33008KT 10/M15 A2984 RMK A01 T01001146  RH  016%=      5-min Rain = 0
KSB1 220531Z 32008KT 10/M15 A2984 RMK A01 T01001147  RH  016%=      5-min Rain = 0
KSB1 220532Z 32008KT 10/M15 A2984 RMK A01 T01011147  RH  016%=      5-min Rain = 0
KSB1 220533Z 32009KT 10/M15 A2984 RMK A01 T01011147  RH  016%=      5-min Rain = 0
KSB1 220534Z 33008KT 10/M15 A2984 RMK A01 T01021145  RH  016%=      5-min Rain = 0
KSB1 220535Z 33009KT 10/M15 A2984 RMK A01 T01021145  RH  016%=      5-min Rain = 0
KSB1 220536Z 33008KT 10/M15 A2984 RMK A01 T01011145  RH  016%=      5-min Rain = 0
KSB1 220537Z 32008KT 10/M15 A2984 RMK A01 T01011145  RH  016%=      5-min Rain = 0
KSB1 220538Z 33009KT 10/M15 A2984 RMK A01 T01011145  RH  016%=      5-min Rain = 0
KSB1 220539Z 32009KT 10/M15 A2984 RMK A01 T01031146  RH  016%=      5-min Rain = 0
KSB1 220540Z 32009KT 10/M15 A2984 RMK A01 T01041147  RH  016%=      5-min Rain = 0
KSB1 220541Z 32008KT 10/M15 A2984 RMK A01 T01041147  RH  016%=      5-min Rain = 0
KSB1 220542Z 32008KT 10/M15 A2984 RMK A01 T01041147  RH  016%=      5-min Rain = 0
KSB1 220543Z 32008KT 10/M15 A2984 RMK A01 T01041147  RH  016%=      5-min Rain = 0
KSB1 220544Z 32008KT 10/M15 A2984 RMK A01 T01041147  RH  016%=      5-min Rain = 0
KSB1 220545Z 31009KT 10/M15 A2984 RMK A01 T01031147  RH  016%=      5-min Rain = 0
KSB1 220546Z 31009KT 10/M15 A2984 RMK A01 T01041147  RH  016%=      5-min Rain = 0
KSB1 220547Z 32009KT 11/M15 A2984 RMK A01 T01051147  RH  015%=      5-min Rain = 0
KSB1 220548Z 32009KT 11/M15 A2984 RMK A01 T01061147  RH  015%=      5-min Rain = 0
KSB1 220549Z 32008KT 11/M15 A2984 RMK A01 T01061147  RH  015%=      5-min Rain = 0
KSB1 220550Z 32009KT 11/M15 A2984 RMK A01 T01061147  RH  015%=      5-min Rain = 0
KSB1 220551Z 32008KT 11/M15 A2984 RMK A01 T01051147  RH  015%=      5-min Rain = 0
KSB1 220552Z 32008KT 11/M15 A2984 RMK A01 T01051146  RH  016%=      5-min Rain = 0
KSB1 220553Z 32008KT 10/M15 A2984 RMK A01 T01041147  RH  016%=      5-min Rain = 0
KSB1 220554Z 32008KT 11/M15 A2984 RMK A01 T01051147  RH  016%=      5-min Rain = 0
KSB1 220555Z 32008KT 11/M15 A2984 RMK A01 T01051147  RH  016%=      5-min Rain = 0
KSB1 220556Z 31007KT 11/M15 A2984 RMK A01 T01051147  RH  016%=      5-min Rain = 0
KSB1 220557Z 31008KT 11/M15 A2984 RMK A01 T01051147  RH  016%=      5-min Rain = 0
KSB1 220558Z 32008KT 10/M15 A2984 RMK A01 T01041147  RH  016%=      5-min Rain = 0
KSB1 220559Z 32008KT 10/M15 A2984 RMK A01 T01031147  RH  016%=      5-min Rain = 0

Page generated in 0.1028 seconds.